<?xml version="1.0" encoding="UTF-8" standalone="no" ?>
<gpx xmlns="http://www.topografix.com/GPX/1/1" xmlns:xsi="http://www.w3.org/2001/XMLSchema-instance" xsi:schemaLocation="http://www.topografix.com/GPX/1/1 http://www.topografix.com/GPX/1/1/gpx.xsd" version="1.1" creator="VisuGPX - https://www.visugpx.com">
  <metadata>
    <name>20-JUIL-20 02:27:57 PM</name>
    <desc><![CDATA[Variation autour du vieux village de Rochecolombe en Ardèche.A ne pas manquer la visite du vieux villages et sa vieille église perchée au pieds des ruines du château.]]></desc>
  </metadata>
  <trk>
    <name><![CDATA[20-JUIL-20 02:27:57 PM]]></name>
    <trkseg>
      <trkpt lat="44.51768" lon="4.43142">
        <ele>191.92</ele>
        <time>2020-07-20T07:26:57Z</time>
      </trkpt>
      <trkpt lat="44.51766" lon="4.43144">
        <ele>191.92</ele>
        <time>2020-07-20T07:27:12Z</time>
      </trkpt>
      <trkpt lat="44.51766" lon="4.43144">
        <ele>191.44</ele>
        <time>2020-07-20T07:27:27Z</time>
      </trkpt>
      <trkpt lat="44.51769" lon="4.43144">
        <ele>191.92</ele>
        <time>2020-07-20T07:27:42Z</time>
      </trkpt>
      <trkpt lat="44.51767" lon="4.43142">
        <ele>191.44</ele>
        <time>2020-07-20T07:27:57Z</time>
      </trkpt>
      <trkpt lat="44.51764" lon="4.43141">
        <ele>191.44</ele>
        <time>2020-07-20T07:28:12Z</time>
      </trkpt>
      <trkpt lat="44.51764" lon="4.43138">
        <ele>191.92</ele>
        <time>2020-07-20T07:28:27Z</time>
      </trkpt>
      <trkpt lat="44.51765" lon="4.43141">
        <ele>191.92</ele>
        <time>2020-07-20T07:28:42Z</time>
      </trkpt>
      <trkpt lat="44.51767" lon="4.43141">
        <ele>191.92</ele>
        <time>2020-07-20T07:28:57Z</time>
      </trkpt>
      <trkpt lat="44.51767" lon="4.43143">
        <ele>192.4</ele>
        <time>2020-07-20T07:29:12Z</time>
      </trkpt>
      <trkpt lat="44.51765" lon="4.43144">
        <ele>191.92</ele>
        <time>2020-07-20T07:29:27Z</time>
      </trkpt>
      <trkpt lat="44.51765" lon="4.43143">
        <ele>192.4</ele>
        <time>2020-07-20T07:29:42Z</time>
      </trkpt>
      <trkpt lat="44.51768" lon="4.43142">
        <ele>193.36</ele>
        <time>2020-07-20T07:29:57Z</time>
      </trkpt>
      <trkpt lat="44.51761" lon="4.43136">
        <ele>193.36</ele>
        <time>2020-07-20T07:30:12Z</time>
      </trkpt>
      <trkpt lat="44.5176" lon="4.43135">
        <ele>192.88</ele>
        <time>2020-07-20T07:30:27Z</time>
      </trkpt>
      <trkpt lat="44.51765" lon="4.43139">
        <ele>192.88</ele>
        <time>2020-07-20T07:30:42Z</time>
      </trkpt>
      <trkpt lat="44.51765" lon="4.43144">
        <ele>192.88</ele>
        <time>2020-07-20T07:30:57Z</time>
      </trkpt>
      <trkpt lat="44.51765" lon="4.43142">
        <ele>192.88</ele>
        <time>2020-07-20T07:31:12Z</time>
      </trkpt>
      <trkpt lat="44.51766" lon="4.43143">
        <ele>191.92</ele>
        <time>2020-07-20T07:31:27Z</time>
      </trkpt>
      <trkpt lat="44.51767" lon="4.43163">
        <ele>192.88</ele>
        <time>2020-07-20T07:31:42Z</time>
      </trkpt>
      <trkpt lat="44.51765" lon="4.43186">
        <ele>192.88</ele>
        <time>2020-07-20T07:31:57Z</time>
      </trkpt>
      <trkpt lat="44.51759" lon="4.4321">
        <ele>193.36</ele>
        <time>2020-07-20T07:32:12Z</time>
      </trkpt>
      <trkpt lat="44.5175" lon="4.43228">
        <ele>193.36</ele>
        <time>2020-07-20T07:32:27Z</time>
      </trkpt>
      <trkpt lat="44.51743" lon="4.43237">
        <ele>192.88</ele>
        <time>2020-07-20T07:32:42Z</time>
      </trkpt>
      <trkpt lat="44.51733" lon="4.43256">
        <ele>193.84</ele>
        <time>2020-07-20T07:32:57Z</time>
      </trkpt>
      <trkpt lat="44.51723" lon="4.43276">
        <ele>194.8</ele>
        <time>2020-07-20T07:33:12Z</time>
      </trkpt>
      <trkpt lat="44.51721" lon="4.43279">
        <ele>194.8</ele>
        <time>2020-07-20T07:33:27Z</time>
      </trkpt>
      <trkpt lat="44.51723" lon="4.43287">
        <ele>195.77</ele>
        <time>2020-07-20T07:33:42Z</time>
      </trkpt>
      <trkpt lat="44.51721" lon="4.43288">
        <ele>195.77</ele>
        <time>2020-07-20T07:33:57Z</time>
      </trkpt>
      <trkpt lat="44.51721" lon="4.43291">
        <ele>195.77</ele>
        <time>2020-07-20T07:34:12Z</time>
      </trkpt>
      <trkpt lat="44.51713" lon="4.43284">
        <ele>195.28</ele>
        <time>2020-07-20T07:34:27Z</time>
      </trkpt>
      <trkpt lat="44.51704" lon="4.43291">
        <ele>195.77</ele>
        <time>2020-07-20T07:34:42Z</time>
      </trkpt>
      <trkpt lat="44.51707" lon="4.43289">
        <ele>195.77</ele>
        <time>2020-07-20T07:34:57Z</time>
      </trkpt>
      <trkpt lat="44.51719" lon="4.43285">
        <ele>195.77</ele>
        <time>2020-07-20T07:35:12Z</time>
      </trkpt>
      <trkpt lat="44.51725" lon="4.43287">
        <ele>195.28</ele>
        <time>2020-07-20T07:35:27Z</time>
      </trkpt>
      <trkpt lat="44.51737" lon="4.43294">
        <ele>196.73</ele>
        <time>2020-07-20T07:35:42Z</time>
      </trkpt>
      <trkpt lat="44.51751" lon="4.43309">
        <ele>198.17</ele>
        <time>2020-07-20T07:35:57Z</time>
      </trkpt>
      <trkpt lat="44.51755" lon="4.43312">
        <ele>198.65</ele>
        <time>2020-07-20T07:36:12Z</time>
      </trkpt>
      <trkpt lat="44.51755" lon="4.43315">
        <ele>198.17</ele>
        <time>2020-07-20T07:36:27Z</time>
      </trkpt>
      <trkpt lat="44.51763" lon="4.43333">
        <ele>199.61</ele>
        <time>2020-07-20T07:36:42Z</time>
      </trkpt>
      <trkpt lat="44.51765" lon="4.43356">
        <ele>200.57</ele>
        <time>2020-07-20T07:36:57Z</time>
      </trkpt>
      <trkpt lat="44.51768" lon="4.43364">
        <ele>201.05</ele>
        <time>2020-07-20T07:37:12Z</time>
      </trkpt>
      <trkpt lat="44.51773" lon="4.43382">
        <ele>201.53</ele>
        <time>2020-07-20T07:37:27Z</time>
      </trkpt>
      <trkpt lat="44.51773" lon="4.43382">
        <ele>202.01</ele>
        <time>2020-07-20T07:37:42Z</time>
      </trkpt>
      <trkpt lat="44.51772" lon="4.43382">
        <ele>201.53</ele>
        <time>2020-07-20T07:37:57Z</time>
      </trkpt>
      <trkpt lat="44.51771" lon="4.43374">
        <ele>201.53</ele>
        <time>2020-07-20T07:38:12Z</time>
      </trkpt>
      <trkpt lat="44.51771" lon="4.43376">
        <ele>201.53</ele>
        <time>2020-07-20T07:38:27Z</time>
      </trkpt>
      <trkpt lat="44.51773" lon="4.43378">
        <ele>201.53</ele>
        <time>2020-07-20T07:38:42Z</time>
      </trkpt>
      <trkpt lat="44.51773" lon="4.43383">
        <ele>201.53</ele>
        <time>2020-07-20T07:38:57Z</time>
      </trkpt>
      <trkpt lat="44.51777" lon="4.43404">
        <ele>201.53</ele>
        <time>2020-07-20T07:39:12Z</time>
      </trkpt>
      <trkpt lat="44.51782" lon="4.43424">
        <ele>202.01</ele>
        <time>2020-07-20T07:39:27Z</time>
      </trkpt>
      <trkpt lat="44.51787" lon="4.43448">
        <ele>202.98</ele>
        <time>2020-07-20T07:39:42Z</time>
      </trkpt>
      <trkpt lat="44.51794" lon="4.43472">
        <ele>202.98</ele>
        <time>2020-07-20T07:39:57Z</time>
      </trkpt>
      <trkpt lat="44.51798" lon="4.43487">
        <ele>202.98</ele>
        <time>2020-07-20T07:40:12Z</time>
      </trkpt>
      <trkpt lat="44.51809" lon="4.43502">
        <ele>203.94</ele>
        <time>2020-07-20T07:40:27Z</time>
      </trkpt>
      <trkpt lat="44.51815" lon="4.43525">
        <ele>203.94</ele>
        <time>2020-07-20T07:40:42Z</time>
      </trkpt>
      <trkpt lat="44.51819" lon="4.43544">
        <ele>205.38</ele>
        <time>2020-07-20T07:40:57Z</time>
      </trkpt>
      <trkpt lat="44.51823" lon="4.43569">
        <ele>207.3</ele>
        <time>2020-07-20T07:41:12Z</time>
      </trkpt>
      <trkpt lat="44.51822" lon="4.43594">
        <ele>208.74</ele>
        <time>2020-07-20T07:41:27Z</time>
      </trkpt>
      <trkpt lat="44.51824" lon="4.43614">
        <ele>210.67</ele>
        <time>2020-07-20T07:41:42Z</time>
      </trkpt>
      <trkpt lat="44.51827" lon="4.43633">
        <ele>212.11</ele>
        <time>2020-07-20T07:41:57Z</time>
      </trkpt>
      <trkpt lat="44.51833" lon="4.43655">
        <ele>214.51</ele>
        <time>2020-07-20T07:42:12Z</time>
      </trkpt>
      <trkpt lat="44.5184" lon="4.43674">
        <ele>215.95</ele>
        <time>2020-07-20T07:42:27Z</time>
      </trkpt>
      <trkpt lat="44.51847" lon="4.43696">
        <ele>217.4</ele>
        <time>2020-07-20T07:42:42Z</time>
      </trkpt>
      <trkpt lat="44.51852" lon="4.43711">
        <ele>219.32</ele>
        <time>2020-07-20T07:42:57Z</time>
      </trkpt>
      <trkpt lat="44.51859" lon="4.43728">
        <ele>220.76</ele>
        <time>2020-07-20T07:43:12Z</time>
      </trkpt>
      <trkpt lat="44.51858" lon="4.43747">
        <ele>222.2</ele>
        <time>2020-07-20T07:43:27Z</time>
      </trkpt>
      <trkpt lat="44.51862" lon="4.43748">
        <ele>221.24</ele>
        <time>2020-07-20T07:43:42Z</time>
      </trkpt>
      <trkpt lat="44.51859" lon="4.43748">
        <ele>221.72</ele>
        <time>2020-07-20T07:43:57Z</time>
      </trkpt>
      <trkpt lat="44.51857" lon="4.43744">
        <ele>221.24</ele>
        <time>2020-07-20T07:44:12Z</time>
      </trkpt>
      <trkpt lat="44.51855" lon="4.43743">
        <ele>221.72</ele>
        <time>2020-07-20T07:44:27Z</time>
      </trkpt>
      <trkpt lat="44.51855" lon="4.43742">
        <ele>221.24</ele>
        <time>2020-07-20T07:44:42Z</time>
      </trkpt>
      <trkpt lat="44.51853" lon="4.43743">
        <ele>221.24</ele>
        <time>2020-07-20T07:44:57Z</time>
      </trkpt>
      <trkpt lat="44.51853" lon="4.43744">
        <ele>221.24</ele>
        <time>2020-07-20T07:45:12Z</time>
      </trkpt>
      <trkpt lat="44.51854" lon="4.43744">
        <ele>221.24</ele>
        <time>2020-07-20T07:45:27Z</time>
      </trkpt>
      <trkpt lat="44.51858" lon="4.43746">
        <ele>221.24</ele>
        <time>2020-07-20T07:45:42Z</time>
      </trkpt>
      <trkpt lat="44.51857" lon="4.43743">
        <ele>221.72</ele>
        <time>2020-07-20T07:45:57Z</time>
      </trkpt>
      <trkpt lat="44.51856" lon="4.43741">
        <ele>221.72</ele>
        <time>2020-07-20T07:46:12Z</time>
      </trkpt>
      <trkpt lat="44.51856" lon="4.43742">
        <ele>221.72</ele>
        <time>2020-07-20T07:46:27Z</time>
      </trkpt>
      <trkpt lat="44.51853" lon="4.43744">
        <ele>221.72</ele>
        <time>2020-07-20T07:46:42Z</time>
      </trkpt>
      <trkpt lat="44.51858" lon="4.43744">
        <ele>221.72</ele>
        <time>2020-07-20T07:46:57Z</time>
      </trkpt>
      <trkpt lat="44.51859" lon="4.43741">
        <ele>221.72</ele>
        <time>2020-07-20T07:47:12Z</time>
      </trkpt>
      <trkpt lat="44.51859" lon="4.43746">
        <ele>221.24</ele>
        <time>2020-07-20T07:47:27Z</time>
      </trkpt>
      <trkpt lat="44.5186" lon="4.43745">
        <ele>221.24</ele>
        <time>2020-07-20T07:47:42Z</time>
      </trkpt>
      <trkpt lat="44.51861" lon="4.43746">
        <ele>221.24</ele>
        <time>2020-07-20T07:47:57Z</time>
      </trkpt>
      <trkpt lat="44.51862" lon="4.43747">
        <ele>221.24</ele>
        <time>2020-07-20T07:48:12Z</time>
      </trkpt>
      <trkpt lat="44.51861" lon="4.43752">
        <ele>221.24</ele>
        <time>2020-07-20T07:48:27Z</time>
      </trkpt>
      <trkpt lat="44.5186" lon="4.43754">
        <ele>221.24</ele>
        <time>2020-07-20T07:48:42Z</time>
      </trkpt>
      <trkpt lat="44.51858" lon="4.43744">
        <ele>221.72</ele>
        <time>2020-07-20T07:48:57Z</time>
      </trkpt>
      <trkpt lat="44.51854" lon="4.4374">
        <ele>221.24</ele>
        <time>2020-07-20T07:49:12Z</time>
      </trkpt>
      <trkpt lat="44.51853" lon="4.43746">
        <ele>221.24</ele>
        <time>2020-07-20T07:49:27Z</time>
      </trkpt>
      <trkpt lat="44.51852" lon="4.43763">
        <ele>222.2</ele>
        <time>2020-07-20T07:49:42Z</time>
      </trkpt>
      <trkpt lat="44.51849" lon="4.43785">
        <ele>223.64</ele>
        <time>2020-07-20T07:49:57Z</time>
      </trkpt>
      <trkpt lat="44.51848" lon="4.43807">
        <ele>224.61</ele>
        <time>2020-07-20T07:50:12Z</time>
      </trkpt>
      <trkpt lat="44.51844" lon="4.4382">
        <ele>224.61</ele>
        <time>2020-07-20T07:50:27Z</time>
      </trkpt>
      <trkpt lat="44.51846" lon="4.4382">
        <ele>224.61</ele>
        <time>2020-07-20T07:50:42Z</time>
      </trkpt>
      <trkpt lat="44.51851" lon="4.43831">
        <ele>224.12</ele>
        <time>2020-07-20T07:50:57Z</time>
      </trkpt>
      <trkpt lat="44.5186" lon="4.43848">
        <ele>224.12</ele>
        <time>2020-07-20T07:51:12Z</time>
      </trkpt>
      <trkpt lat="44.51858" lon="4.4385">
        <ele>224.12</ele>
        <time>2020-07-20T07:51:27Z</time>
      </trkpt>
      <trkpt lat="44.51858" lon="4.43852">
        <ele>223.64</ele>
        <time>2020-07-20T07:51:42Z</time>
      </trkpt>
      <trkpt lat="44.51858" lon="4.43851">
        <ele>224.12</ele>
        <time>2020-07-20T07:51:57Z</time>
      </trkpt>
      <trkpt lat="44.51858" lon="4.43853">
        <ele>223.64</ele>
        <time>2020-07-20T07:52:12Z</time>
      </trkpt>
      <trkpt lat="44.51851" lon="4.43864">
        <ele>222.68</ele>
        <time>2020-07-20T07:52:27Z</time>
      </trkpt>
      <trkpt lat="44.51848" lon="4.43875">
        <ele>220.76</ele>
        <time>2020-07-20T07:52:42Z</time>
      </trkpt>
      <trkpt lat="44.5185" lon="4.43874">
        <ele>221.24</ele>
        <time>2020-07-20T07:52:57Z</time>
      </trkpt>
      <trkpt lat="44.51849" lon="4.43874">
        <ele>221.24</ele>
        <time>2020-07-20T07:53:12Z</time>
      </trkpt>
      <trkpt lat="44.51846" lon="4.43883">
        <ele>220.76</ele>
        <time>2020-07-20T07:53:27Z</time>
      </trkpt>
      <trkpt lat="44.51845" lon="4.43879">
        <ele>221.24</ele>
        <time>2020-07-20T07:53:42Z</time>
      </trkpt>
      <trkpt lat="44.51843" lon="4.43883">
        <ele>220.76</ele>
        <time>2020-07-20T07:53:57Z</time>
      </trkpt>
      <trkpt lat="44.5184" lon="4.43891">
        <ele>221.24</ele>
        <time>2020-07-20T07:54:12Z</time>
      </trkpt>
      <trkpt lat="44.5184" lon="4.43893">
        <ele>221.24</ele>
        <time>2020-07-20T07:54:27Z</time>
      </trkpt>
      <trkpt lat="44.51839" lon="4.4389">
        <ele>221.72</ele>
        <time>2020-07-20T07:54:42Z</time>
      </trkpt>
      <trkpt lat="44.51832" lon="4.43896">
        <ele>223.64</ele>
        <time>2020-07-20T07:54:57Z</time>
      </trkpt>
      <trkpt lat="44.51823" lon="4.439">
        <ele>225.09</ele>
        <time>2020-07-20T07:55:12Z</time>
      </trkpt>
      <trkpt lat="44.51818" lon="4.43898">
        <ele>226.05</ele>
        <time>2020-07-20T07:55:27Z</time>
      </trkpt>
      <trkpt lat="44.51807" lon="4.43904">
        <ele>228.93</ele>
        <time>2020-07-20T07:55:42Z</time>
      </trkpt>
      <trkpt lat="44.51795" lon="4.43905">
        <ele>230.37</ele>
        <time>2020-07-20T07:55:57Z</time>
      </trkpt>
      <trkpt lat="44.51795" lon="4.43904">
        <ele>230.37</ele>
        <time>2020-07-20T07:56:12Z</time>
      </trkpt>
      <trkpt lat="44.51786" lon="4.43905">
        <ele>231.81</ele>
        <time>2020-07-20T07:56:27Z</time>
      </trkpt>
      <trkpt lat="44.51776" lon="4.43899">
        <ele>233.26</ele>
        <time>2020-07-20T07:56:42Z</time>
      </trkpt>
      <trkpt lat="44.51773" lon="4.43898">
        <ele>233.26</ele>
        <time>2020-07-20T07:56:57Z</time>
      </trkpt>
      <trkpt lat="44.51775" lon="4.439">
        <ele>233.26</ele>
        <time>2020-07-20T07:57:12Z</time>
      </trkpt>
      <trkpt lat="44.51772" lon="4.43896">
        <ele>234.7</ele>
        <time>2020-07-20T07:57:27Z</time>
      </trkpt>
      <trkpt lat="44.51768" lon="4.43887">
        <ele>236.62</ele>
        <time>2020-07-20T07:57:42Z</time>
      </trkpt>
      <trkpt lat="44.51767" lon="4.43879">
        <ele>238.54</ele>
        <time>2020-07-20T07:57:57Z</time>
      </trkpt>
      <trkpt lat="44.51769" lon="4.43879">
        <ele>239.02</ele>
        <time>2020-07-20T07:58:12Z</time>
      </trkpt>
      <trkpt lat="44.51766" lon="4.43872">
        <ele>240.47</ele>
        <time>2020-07-20T07:58:27Z</time>
      </trkpt>
      <trkpt lat="44.51774" lon="4.43876">
        <ele>242.87</ele>
        <time>2020-07-20T07:58:42Z</time>
      </trkpt>
      <trkpt lat="44.51783" lon="4.43875">
        <ele>244.79</ele>
        <time>2020-07-20T07:58:57Z</time>
      </trkpt>
      <trkpt lat="44.51786" lon="4.43877">
        <ele>245.75</ele>
        <time>2020-07-20T07:59:12Z</time>
      </trkpt>
      <trkpt lat="44.51791" lon="4.43878">
        <ele>246.23</ele>
        <time>2020-07-20T07:59:27Z</time>
      </trkpt>
      <trkpt lat="44.51794" lon="4.43876">
        <ele>245.75</ele>
        <time>2020-07-20T07:59:42Z</time>
      </trkpt>
      <trkpt lat="44.51791" lon="4.43878">
        <ele>245.27</ele>
        <time>2020-07-20T07:59:57Z</time>
      </trkpt>
      <trkpt lat="44.51783" lon="4.43877">
        <ele>244.79</ele>
        <time>2020-07-20T08:00:12Z</time>
      </trkpt>
      <trkpt lat="44.5178" lon="4.43866">
        <ele>246.72</ele>
        <time>2020-07-20T08:00:27Z</time>
      </trkpt>
      <trkpt lat="44.51778" lon="4.4386">
        <ele>247.2</ele>
        <time>2020-07-20T08:00:42Z</time>
      </trkpt>
      <trkpt lat="44.51772" lon="4.43857">
        <ele>248.64</ele>
        <time>2020-07-20T08:00:57Z</time>
      </trkpt>
      <trkpt lat="44.51778" lon="4.43854">
        <ele>251.52</ele>
        <time>2020-07-20T08:01:12Z</time>
      </trkpt>
      <trkpt lat="44.51784" lon="4.43858">
        <ele>252.96</ele>
        <time>2020-07-20T08:01:27Z</time>
      </trkpt>
      <trkpt lat="44.51787" lon="4.43859">
        <ele>252.96</ele>
        <time>2020-07-20T08:01:42Z</time>
      </trkpt>
      <trkpt lat="44.51786" lon="4.43851">
        <ele>255.37</ele>
        <time>2020-07-20T08:01:57Z</time>
      </trkpt>
      <trkpt lat="44.51775" lon="4.43851">
        <ele>255.37</ele>
        <time>2020-07-20T08:02:12Z</time>
      </trkpt>
      <trkpt lat="44.51775" lon="4.4385">
        <ele>255.37</ele>
        <time>2020-07-20T08:02:27Z</time>
      </trkpt>
      <trkpt lat="44.51774" lon="4.43855">
        <ele>255.37</ele>
        <time>2020-07-20T08:02:42Z</time>
      </trkpt>
      <trkpt lat="44.51773" lon="4.43856">
        <ele>255.37</ele>
        <time>2020-07-20T08:02:57Z</time>
      </trkpt>
      <trkpt lat="44.51769" lon="4.43856">
        <ele>255.37</ele>
        <time>2020-07-20T08:03:12Z</time>
      </trkpt>
      <trkpt lat="44.5177" lon="4.43857">
        <ele>255.37</ele>
        <time>2020-07-20T08:03:27Z</time>
      </trkpt>
      <trkpt lat="44.51779" lon="4.4385">
        <ele>254.89</ele>
        <time>2020-07-20T08:03:42Z</time>
      </trkpt>
      <trkpt lat="44.51783" lon="4.43847">
        <ele>257.29</ele>
        <time>2020-07-20T08:03:57Z</time>
      </trkpt>
      <trkpt lat="44.51791" lon="4.43848">
        <ele>259.69</ele>
        <time>2020-07-20T08:04:12Z</time>
      </trkpt>
      <trkpt lat="44.51791" lon="4.43847">
        <ele>259.69</ele>
        <time>2020-07-20T08:04:27Z</time>
      </trkpt>
      <trkpt lat="44.51792" lon="4.43848">
        <ele>260.65</ele>
        <time>2020-07-20T08:04:42Z</time>
      </trkpt>
      <trkpt lat="44.51798" lon="4.43847">
        <ele>262.1</ele>
        <time>2020-07-20T08:04:57Z</time>
      </trkpt>
      <trkpt lat="44.51806" lon="4.43843">
        <ele>265.46</ele>
        <time>2020-07-20T08:05:12Z</time>
      </trkpt>
      <trkpt lat="44.51805" lon="4.43844">
        <ele>264.5</ele>
        <time>2020-07-20T08:05:27Z</time>
      </trkpt>
      <trkpt lat="44.51806" lon="4.43841">
        <ele>265.46</ele>
        <time>2020-07-20T08:05:42Z</time>
      </trkpt>
      <trkpt lat="44.51808" lon="4.43835">
        <ele>266.9</ele>
        <time>2020-07-20T08:05:57Z</time>
      </trkpt>
      <trkpt lat="44.51811" lon="4.43828">
        <ele>269.79</ele>
        <time>2020-07-20T08:06:12Z</time>
      </trkpt>
      <trkpt lat="44.51811" lon="4.43821">
        <ele>270.27</ele>
        <time>2020-07-20T08:06:27Z</time>
      </trkpt>
      <trkpt lat="44.51809" lon="4.4382">
        <ele>270.27</ele>
        <time>2020-07-20T08:06:42Z</time>
      </trkpt>
      <trkpt lat="44.51811" lon="4.43818">
        <ele>270.27</ele>
        <time>2020-07-20T08:06:57Z</time>
      </trkpt>
      <trkpt lat="44.51802" lon="4.43816">
        <ele>272.19</ele>
        <time>2020-07-20T08:07:12Z</time>
      </trkpt>
      <trkpt lat="44.51795" lon="4.43816">
        <ele>273.15</ele>
        <time>2020-07-20T08:07:27Z</time>
      </trkpt>
      <trkpt lat="44.51796" lon="4.43813">
        <ele>272.67</ele>
        <time>2020-07-20T08:07:42Z</time>
      </trkpt>
      <trkpt lat="44.51795" lon="4.43814">
        <ele>272.67</ele>
        <time>2020-07-20T08:07:57Z</time>
      </trkpt>
      <trkpt lat="44.51787" lon="4.4382">
        <ele>271.71</ele>
        <time>2020-07-20T08:08:12Z</time>
      </trkpt>
      <trkpt lat="44.51793" lon="4.4382">
        <ele>272.67</ele>
        <time>2020-07-20T08:08:27Z</time>
      </trkpt>
      <trkpt lat="44.51793" lon="4.43818">
        <ele>274.11</ele>
        <time>2020-07-20T08:08:42Z</time>
      </trkpt>
      <trkpt lat="44.51791" lon="4.43818">
        <ele>274.11</ele>
        <time>2020-07-20T08:08:57Z</time>
      </trkpt>
      <trkpt lat="44.51792" lon="4.43815">
        <ele>274.11</ele>
        <time>2020-07-20T08:09:12Z</time>
      </trkpt>
      <trkpt lat="44.51792" lon="4.43816">
        <ele>274.11</ele>
        <time>2020-07-20T08:09:27Z</time>
      </trkpt>
      <trkpt lat="44.51794" lon="4.43821">
        <ele>274.11</ele>
        <time>2020-07-20T08:09:42Z</time>
      </trkpt>
      <trkpt lat="44.51794" lon="4.4383">
        <ele>271.71</ele>
        <time>2020-07-20T08:09:57Z</time>
      </trkpt>
      <trkpt lat="44.51795" lon="4.43831">
        <ele>271.23</ele>
        <time>2020-07-20T08:10:12Z</time>
      </trkpt>
      <trkpt lat="44.51795" lon="4.4383">
        <ele>271.23</ele>
        <time>2020-07-20T08:10:27Z</time>
      </trkpt>
      <trkpt lat="44.51803" lon="4.43835">
        <ele>270.27</ele>
        <time>2020-07-20T08:10:42Z</time>
      </trkpt>
      <trkpt lat="44.51809" lon="4.43837">
        <ele>267.86</ele>
        <time>2020-07-20T08:10:57Z</time>
      </trkpt>
      <trkpt lat="44.51807" lon="4.43845">
        <ele>266.42</ele>
        <time>2020-07-20T08:11:12Z</time>
      </trkpt>
      <trkpt lat="44.51808" lon="4.43845">
        <ele>266.9</ele>
        <time>2020-07-20T08:11:27Z</time>
      </trkpt>
      <trkpt lat="44.51808" lon="4.43847">
        <ele>265.94</ele>
        <time>2020-07-20T08:11:42Z</time>
      </trkpt>
      <trkpt lat="44.51795" lon="4.43846">
        <ele>262.1</ele>
        <time>2020-07-20T08:11:57Z</time>
      </trkpt>
      <trkpt lat="44.5179" lon="4.43847">
        <ele>261.14</ele>
        <time>2020-07-20T08:12:12Z</time>
      </trkpt>
      <trkpt lat="44.51791" lon="4.43847">
        <ele>260.65</ele>
        <time>2020-07-20T08:12:27Z</time>
      </trkpt>
      <trkpt lat="44.5179" lon="4.43846">
        <ele>261.14</ele>
        <time>2020-07-20T08:12:42Z</time>
      </trkpt>
      <trkpt lat="44.51784" lon="4.43843">
        <ele>260.65</ele>
        <time>2020-07-20T08:12:57Z</time>
      </trkpt>
      <trkpt lat="44.51776" lon="4.43834">
        <ele>261.62</ele>
        <time>2020-07-20T08:13:12Z</time>
      </trkpt>
      <trkpt lat="44.5178" lon="4.43831">
        <ele>262.58</ele>
        <time>2020-07-20T08:13:27Z</time>
      </trkpt>
      <trkpt lat="44.51779" lon="4.43827">
        <ele>262.1</ele>
        <time>2020-07-20T08:13:42Z</time>
      </trkpt>
      <trkpt lat="44.51777" lon="4.4383">
        <ele>261.62</ele>
        <time>2020-07-20T08:13:57Z</time>
      </trkpt>
      <trkpt lat="44.51776" lon="4.43832">
        <ele>261.62</ele>
        <time>2020-07-20T08:14:12Z</time>
      </trkpt>
      <trkpt lat="44.51772" lon="4.43835">
        <ele>261.62</ele>
        <time>2020-07-20T08:14:27Z</time>
      </trkpt>
      <trkpt lat="44.51767" lon="4.43823">
        <ele>261.14</ele>
        <time>2020-07-20T08:14:42Z</time>
      </trkpt>
      <trkpt lat="44.5176" lon="4.43814">
        <ele>260.65</ele>
        <time>2020-07-20T08:14:57Z</time>
      </trkpt>
      <trkpt lat="44.51764" lon="4.43799">
        <ele>262.58</ele>
        <time>2020-07-20T08:15:12Z</time>
      </trkpt>
      <trkpt lat="44.51765" lon="4.43785">
        <ele>264.98</ele>
        <time>2020-07-20T08:15:27Z</time>
      </trkpt>
      <trkpt lat="44.51769" lon="4.43787">
        <ele>264.98</ele>
        <time>2020-07-20T08:15:42Z</time>
      </trkpt>
      <trkpt lat="44.51783" lon="4.43791">
        <ele>264.02</ele>
        <time>2020-07-20T08:15:57Z</time>
      </trkpt>
      <trkpt lat="44.51794" lon="4.43796">
        <ele>262.58</ele>
        <time>2020-07-20T08:16:12Z</time>
      </trkpt>
      <trkpt lat="44.51798" lon="4.43794">
        <ele>261.62</ele>
        <time>2020-07-20T08:16:27Z</time>
      </trkpt>
      <trkpt lat="44.51797" lon="4.43793">
        <ele>261.62</ele>
        <time>2020-07-20T08:16:42Z</time>
      </trkpt>
      <trkpt lat="44.51796" lon="4.43792">
        <ele>262.1</ele>
        <time>2020-07-20T08:16:57Z</time>
      </trkpt>
      <trkpt lat="44.51786" lon="4.43789">
        <ele>263.54</ele>
        <time>2020-07-20T08:17:12Z</time>
      </trkpt>
      <trkpt lat="44.51772" lon="4.43785">
        <ele>264.5</ele>
        <time>2020-07-20T08:17:27Z</time>
      </trkpt>
      <trkpt lat="44.51758" lon="4.43776">
        <ele>265.46</ele>
        <time>2020-07-20T08:17:42Z</time>
      </trkpt>
      <trkpt lat="44.51744" lon="4.43762">
        <ele>266.9</ele>
        <time>2020-07-20T08:17:57Z</time>
      </trkpt>
      <trkpt lat="44.5173" lon="4.43756">
        <ele>267.86</ele>
        <time>2020-07-20T08:18:12Z</time>
      </trkpt>
      <trkpt lat="44.51728" lon="4.43759">
        <ele>266.9</ele>
        <time>2020-07-20T08:18:27Z</time>
      </trkpt>
      <trkpt lat="44.51726" lon="4.43758">
        <ele>266.42</ele>
        <time>2020-07-20T08:18:42Z</time>
      </trkpt>
      <trkpt lat="44.51729" lon="4.43758">
        <ele>266.42</ele>
        <time>2020-07-20T08:18:57Z</time>
      </trkpt>
      <trkpt lat="44.51728" lon="4.43758">
        <ele>266.42</ele>
        <time>2020-07-20T08:19:12Z</time>
      </trkpt>
      <trkpt lat="44.51727" lon="4.43757">
        <ele>266.42</ele>
        <time>2020-07-20T08:19:27Z</time>
      </trkpt>
      <trkpt lat="44.51727" lon="4.43757">
        <ele>266.9</ele>
        <time>2020-07-20T08:19:42Z</time>
      </trkpt>
      <trkpt lat="44.51729" lon="4.43758">
        <ele>266.42</ele>
        <time>2020-07-20T08:19:57Z</time>
      </trkpt>
      <trkpt lat="44.51729" lon="4.4376">
        <ele>266.42</ele>
        <time>2020-07-20T08:20:12Z</time>
      </trkpt>
      <trkpt lat="44.51729" lon="4.43759">
        <ele>266.42</ele>
        <time>2020-07-20T08:20:27Z</time>
      </trkpt>
      <trkpt lat="44.51727" lon="4.43763">
        <ele>267.38</ele>
        <time>2020-07-20T08:20:42Z</time>
      </trkpt>
      <trkpt lat="44.51727" lon="4.43764">
        <ele>266.9</ele>
        <time>2020-07-20T08:20:57Z</time>
      </trkpt>
      <trkpt lat="44.51716" lon="4.43746">
        <ele>268.35</ele>
        <time>2020-07-20T08:21:12Z</time>
      </trkpt>
      <trkpt lat="44.517" lon="4.43735">
        <ele>270.27</ele>
        <time>2020-07-20T08:21:27Z</time>
      </trkpt>
      <trkpt lat="44.51684" lon="4.43732">
        <ele>271.71</ele>
        <time>2020-07-20T08:21:42Z</time>
      </trkpt>
      <trkpt lat="44.51675" lon="4.43726">
        <ele>272.19</ele>
        <time>2020-07-20T08:21:57Z</time>
      </trkpt>
      <trkpt lat="44.51662" lon="4.43731">
        <ele>275.56</ele>
        <time>2020-07-20T08:22:12Z</time>
      </trkpt>
      <trkpt lat="44.51651" lon="4.43747">
        <ele>276.04</ele>
        <time>2020-07-20T08:22:27Z</time>
      </trkpt>
      <trkpt lat="44.51639" lon="4.4376">
        <ele>277.48</ele>
        <time>2020-07-20T08:22:42Z</time>
      </trkpt>
      <trkpt lat="44.51627" lon="4.4377">
        <ele>279.88</ele>
        <time>2020-07-20T08:22:57Z</time>
      </trkpt>
      <trkpt lat="44.51618" lon="4.43777">
        <ele>281.8</ele>
        <time>2020-07-20T08:23:12Z</time>
      </trkpt>
      <trkpt lat="44.51612" lon="4.43782">
        <ele>284.21</ele>
        <time>2020-07-20T08:23:27Z</time>
      </trkpt>
      <trkpt lat="44.51605" lon="4.4378">
        <ele>286.13</ele>
        <time>2020-07-20T08:23:42Z</time>
      </trkpt>
      <trkpt lat="44.516" lon="4.43787">
        <ele>288.05</ele>
        <time>2020-07-20T08:23:57Z</time>
      </trkpt>
      <trkpt lat="44.51596" lon="4.43799">
        <ele>290.46</ele>
        <time>2020-07-20T08:24:12Z</time>
      </trkpt>
      <trkpt lat="44.51594" lon="4.43813">
        <ele>292.38</ele>
        <time>2020-07-20T08:24:27Z</time>
      </trkpt>
      <trkpt lat="44.51597" lon="4.43813">
        <ele>292.38</ele>
        <time>2020-07-20T08:24:42Z</time>
      </trkpt>
      <trkpt lat="44.51598" lon="4.43812">
        <ele>291.9</ele>
        <time>2020-07-20T08:24:57Z</time>
      </trkpt>
      <trkpt lat="44.51598" lon="4.43812">
        <ele>292.38</ele>
        <time>2020-07-20T08:25:12Z</time>
      </trkpt>
      <trkpt lat="44.51593" lon="4.43814">
        <ele>292.38</ele>
        <time>2020-07-20T08:25:27Z</time>
      </trkpt>
      <trkpt lat="44.51584" lon="4.43827">
        <ele>295.26</ele>
        <time>2020-07-20T08:25:42Z</time>
      </trkpt>
      <trkpt lat="44.5158" lon="4.43839">
        <ele>297.67</ele>
        <time>2020-07-20T08:25:57Z</time>
      </trkpt>
      <trkpt lat="44.51586" lon="4.43851">
        <ele>300.55</ele>
        <time>2020-07-20T08:26:12Z</time>
      </trkpt>
      <trkpt lat="44.51582" lon="4.43867">
        <ele>300.55</ele>
        <time>2020-07-20T08:26:27Z</time>
      </trkpt>
      <trkpt lat="44.5158" lon="4.43882">
        <ele>302.47</ele>
        <time>2020-07-20T08:26:42Z</time>
      </trkpt>
      <trkpt lat="44.5158" lon="4.439">
        <ele>302.95</ele>
        <time>2020-07-20T08:26:57Z</time>
      </trkpt>
      <trkpt lat="44.5158" lon="4.43921">
        <ele>304.39</ele>
        <time>2020-07-20T08:27:12Z</time>
      </trkpt>
      <trkpt lat="44.51578" lon="4.43946">
        <ele>305.84</ele>
        <time>2020-07-20T08:27:27Z</time>
      </trkpt>
      <trkpt lat="44.51576" lon="4.43968">
        <ele>305.36</ele>
        <time>2020-07-20T08:27:42Z</time>
      </trkpt>
      <trkpt lat="44.51574" lon="4.43987">
        <ele>304.39</ele>
        <time>2020-07-20T08:27:57Z</time>
      </trkpt>
      <trkpt lat="44.51571" lon="4.44004">
        <ele>303.43</ele>
        <time>2020-07-20T08:28:12Z</time>
      </trkpt>
      <trkpt lat="44.51568" lon="4.44017">
        <ele>302.47</ele>
        <time>2020-07-20T08:28:27Z</time>
      </trkpt>
      <trkpt lat="44.51568" lon="4.44019">
        <ele>302.47</ele>
        <time>2020-07-20T08:28:42Z</time>
      </trkpt>
      <trkpt lat="44.51568" lon="4.44022">
        <ele>301.99</ele>
        <time>2020-07-20T08:28:57Z</time>
      </trkpt>
      <trkpt lat="44.51562" lon="4.44036">
        <ele>301.51</ele>
        <time>2020-07-20T08:29:12Z</time>
      </trkpt>
      <trkpt lat="44.51555" lon="4.44052">
        <ele>299.11</ele>
        <time>2020-07-20T08:29:27Z</time>
      </trkpt>
      <trkpt lat="44.51546" lon="4.44067">
        <ele>298.15</ele>
        <time>2020-07-20T08:29:42Z</time>
      </trkpt>
      <trkpt lat="44.51537" lon="4.44083">
        <ele>295.74</ele>
        <time>2020-07-20T08:29:57Z</time>
      </trkpt>
      <trkpt lat="44.51525" lon="4.44102">
        <ele>294.3</ele>
        <time>2020-07-20T08:30:12Z</time>
      </trkpt>
      <trkpt lat="44.51514" lon="4.44121">
        <ele>293.82</ele>
        <time>2020-07-20T08:30:27Z</time>
      </trkpt>
      <trkpt lat="44.51505" lon="4.44141">
        <ele>294.78</ele>
        <time>2020-07-20T08:30:42Z</time>
      </trkpt>
      <trkpt lat="44.51497" lon="4.44159">
        <ele>295.26</ele>
        <time>2020-07-20T08:30:57Z</time>
      </trkpt>
      <trkpt lat="44.51501" lon="4.44183">
        <ele>294.78</ele>
        <time>2020-07-20T08:31:12Z</time>
      </trkpt>
      <trkpt lat="44.51494" lon="4.44205">
        <ele>294.3</ele>
        <time>2020-07-20T08:31:27Z</time>
      </trkpt>
      <trkpt lat="44.51485" lon="4.44221">
        <ele>293.82</ele>
        <time>2020-07-20T08:31:42Z</time>
      </trkpt>
      <trkpt lat="44.5148" lon="4.44238">
        <ele>290.94</ele>
        <time>2020-07-20T08:31:57Z</time>
      </trkpt>
      <trkpt lat="44.51476" lon="4.44261">
        <ele>289.49</ele>
        <time>2020-07-20T08:32:12Z</time>
      </trkpt>
      <trkpt lat="44.51468" lon="4.44279">
        <ele>287.57</ele>
        <time>2020-07-20T08:32:27Z</time>
      </trkpt>
      <trkpt lat="44.51456" lon="4.44299">
        <ele>287.57</ele>
        <time>2020-07-20T08:32:42Z</time>
      </trkpt>
      <trkpt lat="44.51443" lon="4.44311">
        <ele>287.09</ele>
        <time>2020-07-20T08:32:57Z</time>
      </trkpt>
      <trkpt lat="44.51431" lon="4.4432">
        <ele>286.61</ele>
        <time>2020-07-20T08:33:12Z</time>
      </trkpt>
      <trkpt lat="44.51436" lon="4.44348">
        <ele>285.65</ele>
        <time>2020-07-20T08:33:27Z</time>
      </trkpt>
      <trkpt lat="44.51429" lon="4.44369">
        <ele>285.17</ele>
        <time>2020-07-20T08:33:42Z</time>
      </trkpt>
      <trkpt lat="44.51427" lon="4.44377">
        <ele>285.65</ele>
        <time>2020-07-20T08:33:56Z</time>
      </trkpt>
      <trkpt lat="44.51431" lon="4.44382">
        <ele>284.69</ele>
        <time>2020-07-20T08:34:12Z</time>
      </trkpt>
      <trkpt lat="44.51426" lon="4.4439">
        <ele>285.17</ele>
        <time>2020-07-20T08:34:27Z</time>
      </trkpt>
      <trkpt lat="44.51416" lon="4.44412">
        <ele>286.13</ele>
        <time>2020-07-20T08:34:42Z</time>
      </trkpt>
      <trkpt lat="44.51416" lon="4.44439">
        <ele>286.61</ele>
        <time>2020-07-20T08:34:57Z</time>
      </trkpt>
      <trkpt lat="44.51415" lon="4.44465">
        <ele>286.13</ele>
        <time>2020-07-20T08:35:12Z</time>
      </trkpt>
      <trkpt lat="44.51414" lon="4.44469">
        <ele>286.61</ele>
        <time>2020-07-20T08:35:27Z</time>
      </trkpt>
      <trkpt lat="44.51414" lon="4.44485">
        <ele>286.13</ele>
        <time>2020-07-20T08:35:42Z</time>
      </trkpt>
      <trkpt lat="44.51413" lon="4.44498">
        <ele>286.13</ele>
        <time>2020-07-20T08:35:57Z</time>
      </trkpt>
      <trkpt lat="44.51413" lon="4.445">
        <ele>286.13</ele>
        <time>2020-07-20T08:36:12Z</time>
      </trkpt>
      <trkpt lat="44.51414" lon="4.44506">
        <ele>286.13</ele>
        <time>2020-07-20T08:36:27Z</time>
      </trkpt>
      <trkpt lat="44.51414" lon="4.44527">
        <ele>285.65</ele>
        <time>2020-07-20T08:36:42Z</time>
      </trkpt>
      <trkpt lat="44.51407" lon="4.44551">
        <ele>285.17</ele>
        <time>2020-07-20T08:36:57Z</time>
      </trkpt>
      <trkpt lat="44.51403" lon="4.44581">
        <ele>283.73</ele>
        <time>2020-07-20T08:37:12Z</time>
      </trkpt>
      <trkpt lat="44.51398" lon="4.44607">
        <ele>282.28</ele>
        <time>2020-07-20T08:37:27Z</time>
      </trkpt>
      <trkpt lat="44.51389" lon="4.44629">
        <ele>282.28</ele>
        <time>2020-07-20T08:37:42Z</time>
      </trkpt>
      <trkpt lat="44.51379" lon="4.44651">
        <ele>282.28</ele>
        <time>2020-07-20T08:37:57Z</time>
      </trkpt>
      <trkpt lat="44.5137" lon="4.44669">
        <ele>281.8</ele>
        <time>2020-07-20T08:38:12Z</time>
      </trkpt>
      <trkpt lat="44.5136" lon="4.44685">
        <ele>279.88</ele>
        <time>2020-07-20T08:38:27Z</time>
      </trkpt>
      <trkpt lat="44.51347" lon="4.447">
        <ele>280.84</ele>
        <time>2020-07-20T08:38:42Z</time>
      </trkpt>
      <trkpt lat="44.51331" lon="4.44713">
        <ele>281.32</ele>
        <time>2020-07-20T08:38:57Z</time>
      </trkpt>
      <trkpt lat="44.51319" lon="4.44728">
        <ele>281.32</ele>
        <time>2020-07-20T08:39:12Z</time>
      </trkpt>
      <trkpt lat="44.51312" lon="4.44735">
        <ele>280.84</ele>
        <time>2020-07-20T08:39:27Z</time>
      </trkpt>
      <trkpt lat="44.51297" lon="4.44742">
        <ele>282.77</ele>
        <time>2020-07-20T08:39:42Z</time>
      </trkpt>
      <trkpt lat="44.5128" lon="4.44749">
        <ele>283.73</ele>
        <time>2020-07-20T08:39:57Z</time>
      </trkpt>
      <trkpt lat="44.51267" lon="4.4476">
        <ele>283.73</ele>
        <time>2020-07-20T08:40:12Z</time>
      </trkpt>
      <trkpt lat="44.51252" lon="4.4476">
        <ele>284.21</ele>
        <time>2020-07-20T08:40:27Z</time>
      </trkpt>
      <trkpt lat="44.51237" lon="4.44769">
        <ele>285.17</ele>
        <time>2020-07-20T08:40:42Z</time>
      </trkpt>
      <trkpt lat="44.51225" lon="4.44781">
        <ele>286.13</ele>
        <time>2020-07-20T08:40:57Z</time>
      </trkpt>
      <trkpt lat="44.51227" lon="4.44798">
        <ele>288.05</ele>
        <time>2020-07-20T08:41:12Z</time>
      </trkpt>
      <trkpt lat="44.51231" lon="4.44807">
        <ele>288.53</ele>
        <time>2020-07-20T08:41:27Z</time>
      </trkpt>
      <trkpt lat="44.51231" lon="4.4481">
        <ele>289.01</ele>
        <time>2020-07-20T08:41:42Z</time>
      </trkpt>
      <trkpt lat="44.51232" lon="4.44811">
        <ele>288.53</ele>
        <time>2020-07-20T08:41:57Z</time>
      </trkpt>
      <trkpt lat="44.51233" lon="4.44811">
        <ele>289.01</ele>
        <time>2020-07-20T08:42:12Z</time>
      </trkpt>
      <trkpt lat="44.51237" lon="4.44825">
        <ele>289.97</ele>
        <time>2020-07-20T08:42:27Z</time>
      </trkpt>
      <trkpt lat="44.51232" lon="4.44839">
        <ele>291.42</ele>
        <time>2020-07-20T08:42:42Z</time>
      </trkpt>
      <trkpt lat="44.51233" lon="4.44854">
        <ele>294.78</ele>
        <time>2020-07-20T08:42:57Z</time>
      </trkpt>
      <trkpt lat="44.51235" lon="4.44866">
        <ele>297.18</ele>
        <time>2020-07-20T08:43:12Z</time>
      </trkpt>
      <trkpt lat="44.51232" lon="4.44878">
        <ele>300.07</ele>
        <time>2020-07-20T08:43:27Z</time>
      </trkpt>
      <trkpt lat="44.51233" lon="4.44891">
        <ele>301.99</ele>
        <time>2020-07-20T08:43:42Z</time>
      </trkpt>
      <trkpt lat="44.51231" lon="4.44902">
        <ele>303.91</ele>
        <time>2020-07-20T08:43:57Z</time>
      </trkpt>
      <trkpt lat="44.51231" lon="4.4491">
        <ele>305.84</ele>
        <time>2020-07-20T08:44:12Z</time>
      </trkpt>
      <trkpt lat="44.51227" lon="4.44922">
        <ele>308.24</ele>
        <time>2020-07-20T08:44:27Z</time>
      </trkpt>
      <trkpt lat="44.51225" lon="4.44932">
        <ele>310.64</ele>
        <time>2020-07-20T08:44:42Z</time>
      </trkpt>
      <trkpt lat="44.51222" lon="4.44942">
        <ele>312.09</ele>
        <time>2020-07-20T08:44:57Z</time>
      </trkpt>
      <trkpt lat="44.51216" lon="4.44951">
        <ele>314.49</ele>
        <time>2020-07-20T08:45:12Z</time>
      </trkpt>
      <trkpt lat="44.51211" lon="4.4496">
        <ele>315.93</ele>
        <time>2020-07-20T08:45:27Z</time>
      </trkpt>
      <trkpt lat="44.51209" lon="4.44968">
        <ele>317.37</ele>
        <time>2020-07-20T08:45:42Z</time>
      </trkpt>
      <trkpt lat="44.51204" lon="4.44976">
        <ele>319.78</ele>
        <time>2020-07-20T08:45:57Z</time>
      </trkpt>
      <trkpt lat="44.51199" lon="4.44987">
        <ele>320.26</ele>
        <time>2020-07-20T08:46:12Z</time>
      </trkpt>
      <trkpt lat="44.51193" lon="4.44996">
        <ele>322.66</ele>
        <time>2020-07-20T08:46:27Z</time>
      </trkpt>
      <trkpt lat="44.51187" lon="4.45009">
        <ele>324.1</ele>
        <time>2020-07-20T08:46:42Z</time>
      </trkpt>
      <trkpt lat="44.51183" lon="4.45018">
        <ele>325.54</ele>
        <time>2020-07-20T08:46:57Z</time>
      </trkpt>
      <trkpt lat="44.5118" lon="4.4503">
        <ele>327.47</ele>
        <time>2020-07-20T08:47:12Z</time>
      </trkpt>
      <trkpt lat="44.51177" lon="4.45037">
        <ele>328.43</ele>
        <time>2020-07-20T08:47:27Z</time>
      </trkpt>
      <trkpt lat="44.51171" lon="4.45051">
        <ele>329.87</ele>
        <time>2020-07-20T08:47:42Z</time>
      </trkpt>
      <trkpt lat="44.51173" lon="4.45066">
        <ele>331.31</ele>
        <time>2020-07-20T08:47:57Z</time>
      </trkpt>
      <trkpt lat="44.51173" lon="4.45068">
        <ele>331.79</ele>
        <time>2020-07-20T08:48:12Z</time>
      </trkpt>
      <trkpt lat="44.51171" lon="4.45083">
        <ele>333.71</ele>
        <time>2020-07-20T08:48:27Z</time>
      </trkpt>
      <trkpt lat="44.51167" lon="4.451">
        <ele>335.16</ele>
        <time>2020-07-20T08:48:42Z</time>
      </trkpt>
      <trkpt lat="44.5116" lon="4.45113">
        <ele>336.6</ele>
        <time>2020-07-20T08:48:57Z</time>
      </trkpt>
      <trkpt lat="44.51154" lon="4.45127">
        <ele>338.04</ele>
        <time>2020-07-20T08:49:12Z</time>
      </trkpt>
      <trkpt lat="44.51147" lon="4.45139">
        <ele>339.48</ele>
        <time>2020-07-20T08:49:27Z</time>
      </trkpt>
      <trkpt lat="44.51138" lon="4.45148">
        <ele>339.96</ele>
        <time>2020-07-20T08:49:42Z</time>
      </trkpt>
      <trkpt lat="44.51131" lon="4.45151">
        <ele>340.92</ele>
        <time>2020-07-20T08:49:57Z</time>
      </trkpt>
      <trkpt lat="44.51123" lon="4.4515">
        <ele>340.44</ele>
        <time>2020-07-20T08:50:12Z</time>
      </trkpt>
      <trkpt lat="44.51116" lon="4.45153">
        <ele>340.44</ele>
        <time>2020-07-20T08:50:27Z</time>
      </trkpt>
      <trkpt lat="44.51114" lon="4.45156">
        <ele>340.92</ele>
        <time>2020-07-20T08:50:42Z</time>
      </trkpt>
      <trkpt lat="44.51113" lon="4.45157">
        <ele>340.92</ele>
        <time>2020-07-20T08:50:57Z</time>
      </trkpt>
      <trkpt lat="44.51117" lon="4.45156">
        <ele>340.92</ele>
        <time>2020-07-20T08:51:12Z</time>
      </trkpt>
      <trkpt lat="44.51125" lon="4.45158">
        <ele>341.41</ele>
        <time>2020-07-20T08:51:27Z</time>
      </trkpt>
      <trkpt lat="44.51125" lon="4.45157">
        <ele>340.92</ele>
        <time>2020-07-20T08:51:42Z</time>
      </trkpt>
      <trkpt lat="44.51125" lon="4.45159">
        <ele>340.92</ele>
        <time>2020-07-20T08:51:57Z</time>
      </trkpt>
      <trkpt lat="44.51123" lon="4.45152">
        <ele>341.41</ele>
        <time>2020-07-20T08:52:12Z</time>
      </trkpt>
      <trkpt lat="44.51123" lon="4.4515">
        <ele>340.92</ele>
        <time>2020-07-20T08:52:27Z</time>
      </trkpt>
      <trkpt lat="44.51126" lon="4.45155">
        <ele>341.41</ele>
        <time>2020-07-20T08:52:42Z</time>
      </trkpt>
      <trkpt lat="44.51128" lon="4.45167">
        <ele>342.37</ele>
        <time>2020-07-20T08:52:57Z</time>
      </trkpt>
      <trkpt lat="44.51121" lon="4.45178">
        <ele>344.29</ele>
        <time>2020-07-20T08:53:12Z</time>
      </trkpt>
      <trkpt lat="44.51113" lon="4.45194">
        <ele>346.21</ele>
        <time>2020-07-20T08:53:27Z</time>
      </trkpt>
      <trkpt lat="44.51105" lon="4.45206">
        <ele>348.13</ele>
        <time>2020-07-20T08:53:42Z</time>
      </trkpt>
      <trkpt lat="44.51102" lon="4.45214">
        <ele>348.62</ele>
        <time>2020-07-20T08:53:57Z</time>
      </trkpt>
      <trkpt lat="44.51098" lon="4.45236">
        <ele>349.58</ele>
        <time>2020-07-20T08:54:12Z</time>
      </trkpt>
      <trkpt lat="44.51089" lon="4.45253">
        <ele>350.06</ele>
        <time>2020-07-20T08:54:27Z</time>
      </trkpt>
      <trkpt lat="44.51077" lon="4.4526">
        <ele>351.02</ele>
        <time>2020-07-20T08:54:42Z</time>
      </trkpt>
      <trkpt lat="44.51064" lon="4.45262">
        <ele>352.94</ele>
        <time>2020-07-20T08:54:57Z</time>
      </trkpt>
      <trkpt lat="44.51053" lon="4.4527">
        <ele>355.34</ele>
        <time>2020-07-20T08:55:12Z</time>
      </trkpt>
      <trkpt lat="44.51043" lon="4.45275">
        <ele>356.79</ele>
        <time>2020-07-20T08:55:27Z</time>
      </trkpt>
      <trkpt lat="44.51031" lon="4.45277">
        <ele>357.75</ele>
        <time>2020-07-20T08:55:42Z</time>
      </trkpt>
      <trkpt lat="44.51018" lon="4.45276">
        <ele>359.67</ele>
        <time>2020-07-20T08:55:57Z</time>
      </trkpt>
      <trkpt lat="44.51007" lon="4.45276">
        <ele>361.11</ele>
        <time>2020-07-20T08:56:12Z</time>
      </trkpt>
      <trkpt lat="44.50997" lon="4.45273">
        <ele>363.04</ele>
        <time>2020-07-20T08:56:27Z</time>
      </trkpt>
      <trkpt lat="44.50985" lon="4.45273">
        <ele>364.48</ele>
        <time>2020-07-20T08:56:42Z</time>
      </trkpt>
      <trkpt lat="44.50971" lon="4.4527">
        <ele>365.44</ele>
        <time>2020-07-20T08:56:57Z</time>
      </trkpt>
      <trkpt lat="44.50958" lon="4.45273">
        <ele>366.4</ele>
        <time>2020-07-20T08:57:12Z</time>
      </trkpt>
      <trkpt lat="44.50943" lon="4.45276">
        <ele>367.84</ele>
        <time>2020-07-20T08:57:27Z</time>
      </trkpt>
      <trkpt lat="44.50931" lon="4.45279">
        <ele>369.28</ele>
        <time>2020-07-20T08:57:42Z</time>
      </trkpt>
      <trkpt lat="44.50917" lon="4.45282">
        <ele>371.21</ele>
        <time>2020-07-20T08:57:57Z</time>
      </trkpt>
      <trkpt lat="44.50905" lon="4.45285">
        <ele>372.17</ele>
        <time>2020-07-20T08:58:12Z</time>
      </trkpt>
      <trkpt lat="44.50891" lon="4.45283">
        <ele>374.57</ele>
        <time>2020-07-20T08:58:27Z</time>
      </trkpt>
      <trkpt lat="44.5088" lon="4.45283">
        <ele>375.53</ele>
        <time>2020-07-20T08:58:42Z</time>
      </trkpt>
      <trkpt lat="44.50866" lon="4.45279">
        <ele>376.97</ele>
        <time>2020-07-20T08:58:57Z</time>
      </trkpt>
      <trkpt lat="44.50853" lon="4.45277">
        <ele>377.94</ele>
        <time>2020-07-20T08:59:12Z</time>
      </trkpt>
      <trkpt lat="44.50841" lon="4.45277">
        <ele>378.9</ele>
        <time>2020-07-20T08:59:27Z</time>
      </trkpt>
      <trkpt lat="44.50831" lon="4.4529">
        <ele>379.86</ele>
        <time>2020-07-20T08:59:42Z</time>
      </trkpt>
      <trkpt lat="44.50829" lon="4.45292">
        <ele>380.34</ele>
        <time>2020-07-20T08:59:57Z</time>
      </trkpt>
      <trkpt lat="44.50827" lon="4.45291">
        <ele>380.34</ele>
        <time>2020-07-20T09:00:12Z</time>
      </trkpt>
      <trkpt lat="44.50828" lon="4.45292">
        <ele>380.34</ele>
        <time>2020-07-20T09:00:27Z</time>
      </trkpt>
      <trkpt lat="44.5083" lon="4.45293">
        <ele>380.82</ele>
        <time>2020-07-20T09:00:42Z</time>
      </trkpt>
      <trkpt lat="44.5083" lon="4.45305">
        <ele>380.82</ele>
        <time>2020-07-20T09:00:57Z</time>
      </trkpt>
      <trkpt lat="44.5083" lon="4.45325">
        <ele>381.78</ele>
        <time>2020-07-20T09:01:12Z</time>
      </trkpt>
      <trkpt lat="44.50832" lon="4.45344">
        <ele>382.74</ele>
        <time>2020-07-20T09:01:27Z</time>
      </trkpt>
      <trkpt lat="44.50834" lon="4.45364">
        <ele>384.18</ele>
        <time>2020-07-20T09:01:42Z</time>
      </trkpt>
      <trkpt lat="44.50833" lon="4.45385">
        <ele>385.15</ele>
        <time>2020-07-20T09:01:57Z</time>
      </trkpt>
      <trkpt lat="44.50822" lon="4.45402">
        <ele>386.11</ele>
        <time>2020-07-20T09:02:12Z</time>
      </trkpt>
      <trkpt lat="44.50812" lon="4.45418">
        <ele>386.11</ele>
        <time>2020-07-20T09:02:27Z</time>
      </trkpt>
      <trkpt lat="44.50809" lon="4.45425">
        <ele>386.59</ele>
        <time>2020-07-20T09:02:42Z</time>
      </trkpt>
      <trkpt lat="44.5081" lon="4.45425">
        <ele>386.59</ele>
        <time>2020-07-20T09:02:57Z</time>
      </trkpt>
      <trkpt lat="44.50799" lon="4.45433">
        <ele>386.59</ele>
        <time>2020-07-20T09:03:12Z</time>
      </trkpt>
      <trkpt lat="44.50783" lon="4.45444">
        <ele>387.07</ele>
        <time>2020-07-20T09:03:27Z</time>
      </trkpt>
      <trkpt lat="44.50766" lon="4.45453">
        <ele>387.07</ele>
        <time>2020-07-20T09:03:42Z</time>
      </trkpt>
      <trkpt lat="44.50748" lon="4.45466">
        <ele>386.11</ele>
        <time>2020-07-20T09:03:57Z</time>
      </trkpt>
      <trkpt lat="44.5074" lon="4.45469">
        <ele>385.63</ele>
        <time>2020-07-20T09:04:12Z</time>
      </trkpt>
      <trkpt lat="44.5074" lon="4.45471">
        <ele>385.63</ele>
        <time>2020-07-20T09:04:27Z</time>
      </trkpt>
      <trkpt lat="44.5074" lon="4.45468">
        <ele>385.63</ele>
        <time>2020-07-20T09:04:42Z</time>
      </trkpt>
      <trkpt lat="44.50738" lon="4.45472">
        <ele>385.63</ele>
        <time>2020-07-20T09:04:57Z</time>
      </trkpt>
      <trkpt lat="44.50738" lon="4.45472">
        <ele>385.63</ele>
        <time>2020-07-20T09:05:12Z</time>
      </trkpt>
      <trkpt lat="44.50736" lon="4.45469">
        <ele>385.15</ele>
        <time>2020-07-20T09:05:27Z</time>
      </trkpt>
      <trkpt lat="44.50738" lon="4.45471">
        <ele>385.15</ele>
        <time>2020-07-20T09:05:42Z</time>
      </trkpt>
      <trkpt lat="44.50739" lon="4.45474">
        <ele>385.63</ele>
        <time>2020-07-20T09:05:57Z</time>
      </trkpt>
      <trkpt lat="44.50734" lon="4.45473">
        <ele>385.63</ele>
        <time>2020-07-20T09:06:12Z</time>
      </trkpt>
      <trkpt lat="44.50733" lon="4.45472">
        <ele>386.59</ele>
        <time>2020-07-20T09:06:27Z</time>
      </trkpt>
      <trkpt lat="44.50734" lon="4.45472">
        <ele>386.11</ele>
        <time>2020-07-20T09:06:42Z</time>
      </trkpt>
      <trkpt lat="44.50733" lon="4.45471">
        <ele>386.11</ele>
        <time>2020-07-20T09:06:57Z</time>
      </trkpt>
      <trkpt lat="44.50732" lon="4.45472">
        <ele>385.63</ele>
        <time>2020-07-20T09:07:12Z</time>
      </trkpt>
      <trkpt lat="44.50735" lon="4.45473">
        <ele>386.11</ele>
        <time>2020-07-20T09:07:27Z</time>
      </trkpt>
      <trkpt lat="44.50735" lon="4.45473">
        <ele>386.59</ele>
        <time>2020-07-20T09:07:42Z</time>
      </trkpt>
      <trkpt lat="44.50737" lon="4.45472">
        <ele>386.11</ele>
        <time>2020-07-20T09:07:57Z</time>
      </trkpt>
      <trkpt lat="44.50736" lon="4.45473">
        <ele>386.59</ele>
        <time>2020-07-20T09:08:12Z</time>
      </trkpt>
      <trkpt lat="44.50736" lon="4.45473">
        <ele>386.11</ele>
        <time>2020-07-20T09:08:27Z</time>
      </trkpt>
      <trkpt lat="44.50734" lon="4.45473">
        <ele>386.59</ele>
        <time>2020-07-20T09:08:42Z</time>
      </trkpt>
      <trkpt lat="44.50734" lon="4.45474">
        <ele>386.59</ele>
        <time>2020-07-20T09:08:57Z</time>
      </trkpt>
      <trkpt lat="44.50732" lon="4.45473">
        <ele>386.59</ele>
        <time>2020-07-20T09:09:12Z</time>
      </trkpt>
      <trkpt lat="44.50734" lon="4.45475">
        <ele>386.59</ele>
        <time>2020-07-20T09:09:27Z</time>
      </trkpt>
      <trkpt lat="44.50737" lon="4.45477">
        <ele>386.59</ele>
        <time>2020-07-20T09:09:42Z</time>
      </trkpt>
      <trkpt lat="44.50735" lon="4.45476">
        <ele>386.59</ele>
        <time>2020-07-20T09:09:57Z</time>
      </trkpt>
      <trkpt lat="44.50735" lon="4.45481">
        <ele>386.59</ele>
        <time>2020-07-20T09:10:12Z</time>
      </trkpt>
      <trkpt lat="44.50734" lon="4.45477">
        <ele>386.59</ele>
        <time>2020-07-20T09:10:27Z</time>
      </trkpt>
      <trkpt lat="44.50735" lon="4.4547">
        <ele>386.59</ele>
        <time>2020-07-20T09:10:42Z</time>
      </trkpt>
      <trkpt lat="44.50739" lon="4.45471">
        <ele>387.07</ele>
        <time>2020-07-20T09:10:57Z</time>
      </trkpt>
      <trkpt lat="44.50742" lon="4.45473">
        <ele>386.59</ele>
        <time>2020-07-20T09:11:12Z</time>
      </trkpt>
      <trkpt lat="44.50754" lon="4.45478">
        <ele>386.11</ele>
        <time>2020-07-20T09:11:27Z</time>
      </trkpt>
      <trkpt lat="44.50767" lon="4.45483">
        <ele>388.03</ele>
        <time>2020-07-20T09:11:42Z</time>
      </trkpt>
      <trkpt lat="44.50778" lon="4.45487">
        <ele>388.03</ele>
        <time>2020-07-20T09:11:57Z</time>
      </trkpt>
      <trkpt lat="44.50797" lon="4.45492">
        <ele>388.51</ele>
        <time>2020-07-20T09:12:12Z</time>
      </trkpt>
      <trkpt lat="44.50814" lon="4.45498">
        <ele>388.51</ele>
        <time>2020-07-20T09:12:27Z</time>
      </trkpt>
      <trkpt lat="44.50833" lon="4.45505">
        <ele>388.51</ele>
        <time>2020-07-20T09:12:42Z</time>
      </trkpt>
      <trkpt lat="44.50849" lon="4.45514">
        <ele>389.47</ele>
        <time>2020-07-20T09:12:57Z</time>
      </trkpt>
      <trkpt lat="44.50865" lon="4.45523">
        <ele>388.99</ele>
        <time>2020-07-20T09:13:12Z</time>
      </trkpt>
      <trkpt lat="44.50881" lon="4.4553">
        <ele>389.47</ele>
        <time>2020-07-20T09:13:27Z</time>
      </trkpt>
      <trkpt lat="44.50899" lon="4.45536">
        <ele>389.47</ele>
        <time>2020-07-20T09:13:42Z</time>
      </trkpt>
      <trkpt lat="44.50916" lon="4.45544">
        <ele>389.47</ele>
        <time>2020-07-20T09:13:57Z</time>
      </trkpt>
      <trkpt lat="44.50917" lon="4.45545">
        <ele>389.47</ele>
        <time>2020-07-20T09:14:12Z</time>
      </trkpt>
      <trkpt lat="44.50917" lon="4.45547">
        <ele>388.99</ele>
        <time>2020-07-20T09:14:27Z</time>
      </trkpt>
      <trkpt lat="44.50924" lon="4.45551">
        <ele>388.51</ele>
        <time>2020-07-20T09:14:42Z</time>
      </trkpt>
      <trkpt lat="44.5094" lon="4.45558">
        <ele>387.55</ele>
        <time>2020-07-20T09:14:57Z</time>
      </trkpt>
      <trkpt lat="44.50958" lon="4.45565">
        <ele>385.63</ele>
        <time>2020-07-20T09:15:12Z</time>
      </trkpt>
      <trkpt lat="44.50975" lon="4.45571">
        <ele>384.66</ele>
        <time>2020-07-20T09:15:27Z</time>
      </trkpt>
      <trkpt lat="44.50993" lon="4.4558">
        <ele>383.7</ele>
        <time>2020-07-20T09:15:42Z</time>
      </trkpt>
      <trkpt lat="44.51009" lon="4.45588">
        <ele>382.74</ele>
        <time>2020-07-20T09:15:57Z</time>
      </trkpt>
      <trkpt lat="44.51027" lon="4.45594">
        <ele>381.78</ele>
        <time>2020-07-20T09:16:12Z</time>
      </trkpt>
      <trkpt lat="44.51044" lon="4.45603">
        <ele>380.34</ele>
        <time>2020-07-20T09:16:27Z</time>
      </trkpt>
      <trkpt lat="44.5106" lon="4.4561">
        <ele>378.9</ele>
        <time>2020-07-20T09:16:42Z</time>
      </trkpt>
      <trkpt lat="44.51076" lon="4.45617">
        <ele>378.42</ele>
        <time>2020-07-20T09:16:57Z</time>
      </trkpt>
      <trkpt lat="44.51093" lon="4.45625">
        <ele>376.97</ele>
        <time>2020-07-20T09:17:12Z</time>
      </trkpt>
      <trkpt lat="44.5111" lon="4.45632">
        <ele>376.49</ele>
        <time>2020-07-20T09:17:27Z</time>
      </trkpt>
      <trkpt lat="44.51128" lon="4.45641">
        <ele>375.53</ele>
        <time>2020-07-20T09:17:42Z</time>
      </trkpt>
      <trkpt lat="44.51142" lon="4.45649">
        <ele>374.09</ele>
        <time>2020-07-20T09:17:57Z</time>
      </trkpt>
      <trkpt lat="44.51158" lon="4.45658">
        <ele>372.65</ele>
        <time>2020-07-20T09:18:12Z</time>
      </trkpt>
      <trkpt lat="44.51172" lon="4.45666">
        <ele>371.21</ele>
        <time>2020-07-20T09:18:27Z</time>
      </trkpt>
      <trkpt lat="44.51188" lon="4.45679">
        <ele>370.24</ele>
        <time>2020-07-20T09:18:42Z</time>
      </trkpt>
      <trkpt lat="44.51201" lon="4.45694">
        <ele>369.28</ele>
        <time>2020-07-20T09:18:57Z</time>
      </trkpt>
      <trkpt lat="44.51216" lon="4.45707">
        <ele>367.84</ele>
        <time>2020-07-20T09:19:12Z</time>
      </trkpt>
      <trkpt lat="44.51229" lon="4.4572">
        <ele>366.4</ele>
        <time>2020-07-20T09:19:27Z</time>
      </trkpt>
      <trkpt lat="44.51244" lon="4.45732">
        <ele>365.44</ele>
        <time>2020-07-20T09:19:42Z</time>
      </trkpt>
      <trkpt lat="44.51258" lon="4.45746">
        <ele>364.96</ele>
        <time>2020-07-20T09:19:57Z</time>
      </trkpt>
      <trkpt lat="44.51273" lon="4.4576">
        <ele>364.48</ele>
        <time>2020-07-20T09:20:12Z</time>
      </trkpt>
      <trkpt lat="44.51287" lon="4.45774">
        <ele>364.48</ele>
        <time>2020-07-20T09:20:27Z</time>
      </trkpt>
      <trkpt lat="44.51301" lon="4.45789">
        <ele>364.96</ele>
        <time>2020-07-20T09:20:42Z</time>
      </trkpt>
      <trkpt lat="44.51314" lon="4.45802">
        <ele>365.92</ele>
        <time>2020-07-20T09:20:57Z</time>
      </trkpt>
      <trkpt lat="44.51328" lon="4.45816">
        <ele>365.92</ele>
        <time>2020-07-20T09:21:12Z</time>
      </trkpt>
      <trkpt lat="44.51345" lon="4.45827">
        <ele>366.4</ele>
        <time>2020-07-20T09:21:27Z</time>
      </trkpt>
      <trkpt lat="44.51362" lon="4.45834">
        <ele>365.92</ele>
        <time>2020-07-20T09:21:42Z</time>
      </trkpt>
      <trkpt lat="44.51377" lon="4.45838">
        <ele>365.44</ele>
        <time>2020-07-20T09:21:57Z</time>
      </trkpt>
      <trkpt lat="44.51388" lon="4.4584">
        <ele>365.92</ele>
        <time>2020-07-20T09:22:12Z</time>
      </trkpt>
      <trkpt lat="44.51386" lon="4.45841">
        <ele>365.44</ele>
        <time>2020-07-20T09:22:27Z</time>
      </trkpt>
      <trkpt lat="44.51388" lon="4.45843">
        <ele>365.92</ele>
        <time>2020-07-20T09:22:42Z</time>
      </trkpt>
      <trkpt lat="44.51392" lon="4.45838">
        <ele>364.48</ele>
        <time>2020-07-20T09:22:57Z</time>
      </trkpt>
      <trkpt lat="44.51392" lon="4.45836">
        <ele>364.96</ele>
        <time>2020-07-20T09:23:12Z</time>
      </trkpt>
      <trkpt lat="44.51391" lon="4.45834">
        <ele>364.48</ele>
        <time>2020-07-20T09:23:27Z</time>
      </trkpt>
      <trkpt lat="44.51391" lon="4.45834">
        <ele>364.48</ele>
        <time>2020-07-20T09:23:42Z</time>
      </trkpt>
      <trkpt lat="44.51387" lon="4.4584">
        <ele>365.44</ele>
        <time>2020-07-20T09:23:57Z</time>
      </trkpt>
      <trkpt lat="44.51401" lon="4.45845">
        <ele>365.92</ele>
        <time>2020-07-20T09:24:12Z</time>
      </trkpt>
      <trkpt lat="44.51418" lon="4.45849">
        <ele>366.4</ele>
        <time>2020-07-20T09:24:27Z</time>
      </trkpt>
      <trkpt lat="44.51435" lon="4.45858">
        <ele>366.4</ele>
        <time>2020-07-20T09:24:42Z</time>
      </trkpt>
      <trkpt lat="44.51452" lon="4.45869">
        <ele>366.4</ele>
        <time>2020-07-20T09:24:57Z</time>
      </trkpt>
      <trkpt lat="44.51469" lon="4.4588">
        <ele>365.92</ele>
        <time>2020-07-20T09:25:12Z</time>
      </trkpt>
      <trkpt lat="44.51484" lon="4.45892">
        <ele>366.88</ele>
        <time>2020-07-20T09:25:27Z</time>
      </trkpt>
      <trkpt lat="44.51497" lon="4.45907">
        <ele>367.36</ele>
        <time>2020-07-20T09:25:42Z</time>
      </trkpt>
      <trkpt lat="44.51512" lon="4.45918">
        <ele>367.36</ele>
        <time>2020-07-20T09:25:57Z</time>
      </trkpt>
      <trkpt lat="44.51528" lon="4.45928">
        <ele>367.36</ele>
        <time>2020-07-20T09:26:12Z</time>
      </trkpt>
      <trkpt lat="44.51544" lon="4.45938">
        <ele>367.36</ele>
        <time>2020-07-20T09:26:27Z</time>
      </trkpt>
      <trkpt lat="44.5156" lon="4.45948">
        <ele>366.88</ele>
        <time>2020-07-20T09:26:42Z</time>
      </trkpt>
      <trkpt lat="44.51576" lon="4.45959">
        <ele>366.88</ele>
        <time>2020-07-20T09:26:57Z</time>
      </trkpt>
      <trkpt lat="44.51591" lon="4.45968">
        <ele>366.4</ele>
        <time>2020-07-20T09:27:12Z</time>
      </trkpt>
      <trkpt lat="44.51607" lon="4.45979">
        <ele>364.96</ele>
        <time>2020-07-20T09:27:27Z</time>
      </trkpt>
      <trkpt lat="44.51623" lon="4.45992">
        <ele>364.96</ele>
        <time>2020-07-20T09:27:42Z</time>
      </trkpt>
      <trkpt lat="44.51637" lon="4.46009">
        <ele>364.96</ele>
        <time>2020-07-20T09:27:57Z</time>
      </trkpt>
      <trkpt lat="44.51646" lon="4.46028">
        <ele>365.44</ele>
        <time>2020-07-20T09:28:12Z</time>
      </trkpt>
      <trkpt lat="44.51654" lon="4.46046">
        <ele>365.44</ele>
        <time>2020-07-20T09:28:27Z</time>
      </trkpt>
      <trkpt lat="44.51666" lon="4.46061">
        <ele>365.44</ele>
        <time>2020-07-20T09:28:42Z</time>
      </trkpt>
      <trkpt lat="44.51667" lon="4.46069">
        <ele>365.92</ele>
        <time>2020-07-20T09:28:57Z</time>
      </trkpt>
      <trkpt lat="44.51669" lon="4.4607">
        <ele>365.92</ele>
        <time>2020-07-20T09:29:12Z</time>
      </trkpt>
      <trkpt lat="44.51674" lon="4.46084">
        <ele>366.4</ele>
        <time>2020-07-20T09:29:27Z</time>
      </trkpt>
      <trkpt lat="44.51686" lon="4.461">
        <ele>367.84</ele>
        <time>2020-07-20T09:29:42Z</time>
      </trkpt>
      <trkpt lat="44.51694" lon="4.46111">
        <ele>368.32</ele>
        <time>2020-07-20T09:29:57Z</time>
      </trkpt>
      <trkpt lat="44.51708" lon="4.4612">
        <ele>368.8</ele>
        <time>2020-07-20T09:30:12Z</time>
      </trkpt>
      <trkpt lat="44.51729" lon="4.46128">
        <ele>369.28</ele>
        <time>2020-07-20T09:30:27Z</time>
      </trkpt>
      <trkpt lat="44.51746" lon="4.46135">
        <ele>369.28</ele>
        <time>2020-07-20T09:30:42Z</time>
      </trkpt>
      <trkpt lat="44.51763" lon="4.46141">
        <ele>369.28</ele>
        <time>2020-07-20T09:30:57Z</time>
      </trkpt>
      <trkpt lat="44.51779" lon="4.46147">
        <ele>369.28</ele>
        <time>2020-07-20T09:31:12Z</time>
      </trkpt>
      <trkpt lat="44.51795" lon="4.46153">
        <ele>369.76</ele>
        <time>2020-07-20T09:31:27Z</time>
      </trkpt>
      <trkpt lat="44.51812" lon="4.46159">
        <ele>369.76</ele>
        <time>2020-07-20T09:31:42Z</time>
      </trkpt>
      <trkpt lat="44.51816" lon="4.46161">
        <ele>369.76</ele>
        <time>2020-07-20T09:31:57Z</time>
      </trkpt>
      <trkpt lat="44.51816" lon="4.4616">
        <ele>369.28</ele>
        <time>2020-07-20T09:32:12Z</time>
      </trkpt>
      <trkpt lat="44.51816" lon="4.4616">
        <ele>369.76</ele>
        <time>2020-07-20T09:32:27Z</time>
      </trkpt>
      <trkpt lat="44.51816" lon="4.46159">
        <ele>369.76</ele>
        <time>2020-07-20T09:32:42Z</time>
      </trkpt>
      <trkpt lat="44.51815" lon="4.46161">
        <ele>369.28</ele>
        <time>2020-07-20T09:32:57Z</time>
      </trkpt>
      <trkpt lat="44.51813" lon="4.46161">
        <ele>369.76</ele>
        <time>2020-07-20T09:33:12Z</time>
      </trkpt>
      <trkpt lat="44.51831" lon="4.46167">
        <ele>369.76</ele>
        <time>2020-07-20T09:33:27Z</time>
      </trkpt>
      <trkpt lat="44.51849" lon="4.46169">
        <ele>370.24</ele>
        <time>2020-07-20T09:33:42Z</time>
      </trkpt>
      <trkpt lat="44.51867" lon="4.46177">
        <ele>370.24</ele>
        <time>2020-07-20T09:33:57Z</time>
      </trkpt>
      <trkpt lat="44.51868" lon="4.46177">
        <ele>370.73</ele>
        <time>2020-07-20T09:34:12Z</time>
      </trkpt>
      <trkpt lat="44.51866" lon="4.46178">
        <ele>370.24</ele>
        <time>2020-07-20T09:34:27Z</time>
      </trkpt>
      <trkpt lat="44.51866" lon="4.46179">
        <ele>370.73</ele>
        <time>2020-07-20T09:34:42Z</time>
      </trkpt>
      <trkpt lat="44.51864" lon="4.46179">
        <ele>370.24</ele>
        <time>2020-07-20T09:34:57Z</time>
      </trkpt>
      <trkpt lat="44.51863" lon="4.46178">
        <ele>370.24</ele>
        <time>2020-07-20T09:35:12Z</time>
      </trkpt>
      <trkpt lat="44.51862" lon="4.46178">
        <ele>370.73</ele>
        <time>2020-07-20T09:35:27Z</time>
      </trkpt>
      <trkpt lat="44.51863" lon="4.46177">
        <ele>370.73</ele>
        <time>2020-07-20T09:35:42Z</time>
      </trkpt>
      <trkpt lat="44.51863" lon="4.46175">
        <ele>370.24</ele>
        <time>2020-07-20T09:35:57Z</time>
      </trkpt>
      <trkpt lat="44.51864" lon="4.4618">
        <ele>370.24</ele>
        <time>2020-07-20T09:36:12Z</time>
      </trkpt>
      <trkpt lat="44.51882" lon="4.46184">
        <ele>370.73</ele>
        <time>2020-07-20T09:36:27Z</time>
      </trkpt>
      <trkpt lat="44.519" lon="4.46191">
        <ele>370.24</ele>
        <time>2020-07-20T09:36:42Z</time>
      </trkpt>
      <trkpt lat="44.51918" lon="4.46199">
        <ele>369.76</ele>
        <time>2020-07-20T09:36:57Z</time>
      </trkpt>
      <trkpt lat="44.51935" lon="4.46208">
        <ele>368.8</ele>
        <time>2020-07-20T09:37:12Z</time>
      </trkpt>
      <trkpt lat="44.51953" lon="4.46216">
        <ele>367.84</ele>
        <time>2020-07-20T09:37:27Z</time>
      </trkpt>
      <trkpt lat="44.51971" lon="4.46224">
        <ele>367.36</ele>
        <time>2020-07-20T09:37:42Z</time>
      </trkpt>
      <trkpt lat="44.51988" lon="4.46233">
        <ele>366.4</ele>
        <time>2020-07-20T09:37:57Z</time>
      </trkpt>
      <trkpt lat="44.52005" lon="4.46242">
        <ele>367.36</ele>
        <time>2020-07-20T09:38:12Z</time>
      </trkpt>
      <trkpt lat="44.52022" lon="4.46251">
        <ele>366.88</ele>
        <time>2020-07-20T09:38:27Z</time>
      </trkpt>
      <trkpt lat="44.52039" lon="4.46261">
        <ele>366.4</ele>
        <time>2020-07-20T09:38:42Z</time>
      </trkpt>
      <trkpt lat="44.52054" lon="4.46273">
        <ele>365.92</ele>
        <time>2020-07-20T09:38:57Z</time>
      </trkpt>
      <trkpt lat="44.5207" lon="4.46285">
        <ele>365.44</ele>
        <time>2020-07-20T09:39:12Z</time>
      </trkpt>
      <trkpt lat="44.52083" lon="4.46299">
        <ele>364.48</ele>
        <time>2020-07-20T09:39:27Z</time>
      </trkpt>
      <trkpt lat="44.52097" lon="4.46315">
        <ele>364.48</ele>
        <time>2020-07-20T09:39:42Z</time>
      </trkpt>
      <trkpt lat="44.52107" lon="4.46328">
        <ele>364</ele>
        <time>2020-07-20T09:39:57Z</time>
      </trkpt>
      <trkpt lat="44.5212" lon="4.46346">
        <ele>363.52</ele>
        <time>2020-07-20T09:40:12Z</time>
      </trkpt>
      <trkpt lat="44.52133" lon="4.46363">
        <ele>362.55</ele>
        <time>2020-07-20T09:40:27Z</time>
      </trkpt>
      <trkpt lat="44.52145" lon="4.46379">
        <ele>361.59</ele>
        <time>2020-07-20T09:40:42Z</time>
      </trkpt>
      <trkpt lat="44.52159" lon="4.46393">
        <ele>361.11</ele>
        <time>2020-07-20T09:40:57Z</time>
      </trkpt>
      <trkpt lat="44.52174" lon="4.46407">
        <ele>360.63</ele>
        <time>2020-07-20T09:41:12Z</time>
      </trkpt>
      <trkpt lat="44.52187" lon="4.46422">
        <ele>360.15</ele>
        <time>2020-07-20T09:41:27Z</time>
      </trkpt>
      <trkpt lat="44.52202" lon="4.46436">
        <ele>360.15</ele>
        <time>2020-07-20T09:41:42Z</time>
      </trkpt>
      <trkpt lat="44.52215" lon="4.46451">
        <ele>359.67</ele>
        <time>2020-07-20T09:41:57Z</time>
      </trkpt>
      <trkpt lat="44.52225" lon="4.46469">
        <ele>359.19</ele>
        <time>2020-07-20T09:42:12Z</time>
      </trkpt>
      <trkpt lat="44.5223" lon="4.46481">
        <ele>359.67</ele>
        <time>2020-07-20T09:42:27Z</time>
      </trkpt>
      <trkpt lat="44.52228" lon="4.46484">
        <ele>359.67</ele>
        <time>2020-07-20T09:42:42Z</time>
      </trkpt>
      <trkpt lat="44.52226" lon="4.46484">
        <ele>359.67</ele>
        <time>2020-07-20T09:42:57Z</time>
      </trkpt>
      <trkpt lat="44.52228" lon="4.46485">
        <ele>360.15</ele>
        <time>2020-07-20T09:43:12Z</time>
      </trkpt>
      <trkpt lat="44.52229" lon="4.46488">
        <ele>359.67</ele>
        <time>2020-07-20T09:43:27Z</time>
      </trkpt>
      <trkpt lat="44.52232" lon="4.46495">
        <ele>359.67</ele>
        <time>2020-07-20T09:43:42Z</time>
      </trkpt>
      <trkpt lat="44.52241" lon="4.46507">
        <ele>361.59</ele>
        <time>2020-07-20T09:43:57Z</time>
      </trkpt>
      <trkpt lat="44.52253" lon="4.4652">
        <ele>362.55</ele>
        <time>2020-07-20T09:44:12Z</time>
      </trkpt>
      <trkpt lat="44.52262" lon="4.46533">
        <ele>364</ele>
        <time>2020-07-20T09:44:27Z</time>
      </trkpt>
      <trkpt lat="44.52269" lon="4.46551">
        <ele>365.44</ele>
        <time>2020-07-20T09:44:42Z</time>
      </trkpt>
      <trkpt lat="44.52273" lon="4.46571">
        <ele>366.4</ele>
        <time>2020-07-20T09:44:57Z</time>
      </trkpt>
      <trkpt lat="44.52274" lon="4.4659">
        <ele>368.32</ele>
        <time>2020-07-20T09:45:12Z</time>
      </trkpt>
      <trkpt lat="44.52274" lon="4.46612">
        <ele>369.28</ele>
        <time>2020-07-20T09:45:27Z</time>
      </trkpt>
      <trkpt lat="44.52267" lon="4.4663">
        <ele>370.73</ele>
        <time>2020-07-20T09:45:42Z</time>
      </trkpt>
      <trkpt lat="44.52261" lon="4.46648">
        <ele>372.65</ele>
        <time>2020-07-20T09:45:57Z</time>
      </trkpt>
      <trkpt lat="44.52256" lon="4.46663">
        <ele>374.09</ele>
        <time>2020-07-20T09:46:12Z</time>
      </trkpt>
      <trkpt lat="44.52252" lon="4.46679">
        <ele>375.05</ele>
        <time>2020-07-20T09:46:27Z</time>
      </trkpt>
      <trkpt lat="44.5226" lon="4.46697">
        <ele>376.49</ele>
        <time>2020-07-20T09:46:42Z</time>
      </trkpt>
      <trkpt lat="44.52269" lon="4.46696">
        <ele>377.45</ele>
        <time>2020-07-20T09:46:57Z</time>
      </trkpt>
      <trkpt lat="44.52284" lon="4.46694">
        <ele>377.94</ele>
        <time>2020-07-20T09:47:12Z</time>
      </trkpt>
      <trkpt lat="44.52298" lon="4.46698">
        <ele>379.38</ele>
        <time>2020-07-20T09:47:27Z</time>
      </trkpt>
      <trkpt lat="44.52311" lon="4.46708">
        <ele>380.82</ele>
        <time>2020-07-20T09:47:42Z</time>
      </trkpt>
      <trkpt lat="44.52323" lon="4.46718">
        <ele>381.3</ele>
        <time>2020-07-20T09:47:57Z</time>
      </trkpt>
      <trkpt lat="44.52335" lon="4.46727">
        <ele>382.26</ele>
        <time>2020-07-20T09:48:12Z</time>
      </trkpt>
      <trkpt lat="44.52347" lon="4.46736">
        <ele>383.7</ele>
        <time>2020-07-20T09:48:27Z</time>
      </trkpt>
      <trkpt lat="44.52359" lon="4.46745">
        <ele>384.18</ele>
        <time>2020-07-20T09:48:42Z</time>
      </trkpt>
      <trkpt lat="44.5237" lon="4.46754">
        <ele>385.15</ele>
        <time>2020-07-20T09:48:57Z</time>
      </trkpt>
      <trkpt lat="44.52382" lon="4.46763">
        <ele>386.11</ele>
        <time>2020-07-20T09:49:12Z</time>
      </trkpt>
      <trkpt lat="44.52395" lon="4.46772">
        <ele>387.55</ele>
        <time>2020-07-20T09:49:27Z</time>
      </trkpt>
      <trkpt lat="44.52407" lon="4.46782">
        <ele>388.51</ele>
        <time>2020-07-20T09:49:42Z</time>
      </trkpt>
      <trkpt lat="44.52419" lon="4.46792">
        <ele>389.95</ele>
        <time>2020-07-20T09:49:57Z</time>
      </trkpt>
      <trkpt lat="44.52432" lon="4.46801">
        <ele>391.39</ele>
        <time>2020-07-20T09:50:12Z</time>
      </trkpt>
      <trkpt lat="44.52444" lon="4.46811">
        <ele>392.36</ele>
        <time>2020-07-20T09:50:27Z</time>
      </trkpt>
      <trkpt lat="44.52456" lon="4.4682">
        <ele>394.28</ele>
        <time>2020-07-20T09:50:42Z</time>
      </trkpt>
      <trkpt lat="44.52469" lon="4.46829">
        <ele>394.76</ele>
        <time>2020-07-20T09:50:57Z</time>
      </trkpt>
      <trkpt lat="44.5248" lon="4.46838">
        <ele>396.2</ele>
        <time>2020-07-20T09:51:12Z</time>
      </trkpt>
      <trkpt lat="44.52492" lon="4.46847">
        <ele>397.64</ele>
        <time>2020-07-20T09:51:27Z</time>
      </trkpt>
      <trkpt lat="44.52504" lon="4.46856">
        <ele>398.6</ele>
        <time>2020-07-20T09:51:42Z</time>
      </trkpt>
      <trkpt lat="44.52517" lon="4.46867">
        <ele>399.57</ele>
        <time>2020-07-20T09:51:57Z</time>
      </trkpt>
      <trkpt lat="44.52529" lon="4.46875">
        <ele>400.53</ele>
        <time>2020-07-20T09:52:12Z</time>
      </trkpt>
      <trkpt lat="44.52541" lon="4.46882">
        <ele>401.01</ele>
        <time>2020-07-20T09:52:27Z</time>
      </trkpt>
      <trkpt lat="44.52554" lon="4.46888">
        <ele>402.45</ele>
        <time>2020-07-20T09:52:42Z</time>
      </trkpt>
      <trkpt lat="44.5257" lon="4.46895">
        <ele>403.89</ele>
        <time>2020-07-20T09:52:57Z</time>
      </trkpt>
      <trkpt lat="44.52582" lon="4.46903">
        <ele>404.85</ele>
        <time>2020-07-20T09:53:12Z</time>
      </trkpt>
      <trkpt lat="44.52595" lon="4.46912">
        <ele>405.81</ele>
        <time>2020-07-20T09:53:27Z</time>
      </trkpt>
      <trkpt lat="44.52611" lon="4.46919">
        <ele>406.77</ele>
        <time>2020-07-20T09:53:42Z</time>
      </trkpt>
      <trkpt lat="44.52626" lon="4.46925">
        <ele>407.74</ele>
        <time>2020-07-20T09:53:57Z</time>
      </trkpt>
      <trkpt lat="44.5264" lon="4.46932">
        <ele>408.7</ele>
        <time>2020-07-20T09:54:12Z</time>
      </trkpt>
      <trkpt lat="44.52652" lon="4.4694">
        <ele>409.18</ele>
        <time>2020-07-20T09:54:27Z</time>
      </trkpt>
      <trkpt lat="44.52666" lon="4.46948">
        <ele>410.14</ele>
        <time>2020-07-20T09:54:42Z</time>
      </trkpt>
      <trkpt lat="44.52683" lon="4.46959">
        <ele>410.14</ele>
        <time>2020-07-20T09:54:57Z</time>
      </trkpt>
      <trkpt lat="44.52698" lon="4.46968">
        <ele>411.1</ele>
        <time>2020-07-20T09:55:12Z</time>
      </trkpt>
      <trkpt lat="44.5271" lon="4.46974">
        <ele>411.58</ele>
        <time>2020-07-20T09:55:27Z</time>
      </trkpt>
      <trkpt lat="44.52723" lon="4.46982">
        <ele>411.58</ele>
        <time>2020-07-20T09:55:42Z</time>
      </trkpt>
      <trkpt lat="44.52743" lon="4.46991">
        <ele>412.06</ele>
        <time>2020-07-20T09:55:57Z</time>
      </trkpt>
      <trkpt lat="44.52755" lon="4.46997">
        <ele>413.02</ele>
        <time>2020-07-20T09:56:12Z</time>
      </trkpt>
      <trkpt lat="44.52768" lon="4.47">
        <ele>412.54</ele>
        <time>2020-07-20T09:56:27Z</time>
      </trkpt>
      <trkpt lat="44.52783" lon="4.47">
        <ele>412.54</ele>
        <time>2020-07-20T09:56:42Z</time>
      </trkpt>
      <trkpt lat="44.52785" lon="4.46998">
        <ele>411.1</ele>
        <time>2020-07-20T09:56:57Z</time>
      </trkpt>
      <trkpt lat="44.52785" lon="4.46999">
        <ele>412.54</ele>
        <time>2020-07-20T09:57:12Z</time>
      </trkpt>
      <trkpt lat="44.52787" lon="4.47">
        <ele>412.54</ele>
        <time>2020-07-20T09:57:27Z</time>
      </trkpt>
      <trkpt lat="44.52789" lon="4.47">
        <ele>412.54</ele>
        <time>2020-07-20T09:57:42Z</time>
      </trkpt>
      <trkpt lat="44.5279" lon="4.46994">
        <ele>412.54</ele>
        <time>2020-07-20T09:57:57Z</time>
      </trkpt>
      <trkpt lat="44.52799" lon="4.46986">
        <ele>410.14</ele>
        <time>2020-07-20T09:58:12Z</time>
      </trkpt>
      <trkpt lat="44.52805" lon="4.46973">
        <ele>407.26</ele>
        <time>2020-07-20T09:58:27Z</time>
      </trkpt>
      <trkpt lat="44.52812" lon="4.46963">
        <ele>406.29</ele>
        <time>2020-07-20T09:58:42Z</time>
      </trkpt>
      <trkpt lat="44.52814" lon="4.4696">
        <ele>405.33</ele>
        <time>2020-07-20T09:58:57Z</time>
      </trkpt>
      <trkpt lat="44.52812" lon="4.46962">
        <ele>405.81</ele>
        <time>2020-07-20T09:59:12Z</time>
      </trkpt>
      <trkpt lat="44.52811" lon="4.46962">
        <ele>405.81</ele>
        <time>2020-07-20T09:59:27Z</time>
      </trkpt>
      <trkpt lat="44.52813" lon="4.46959">
        <ele>405.33</ele>
        <time>2020-07-20T09:59:42Z</time>
      </trkpt>
      <trkpt lat="44.5281" lon="4.46956">
        <ele>405.33</ele>
        <time>2020-07-20T09:59:57Z</time>
      </trkpt>
      <trkpt lat="44.52806" lon="4.46953">
        <ele>405.81</ele>
        <time>2020-07-20T10:00:12Z</time>
      </trkpt>
      <trkpt lat="44.52804" lon="4.46948">
        <ele>404.85</ele>
        <time>2020-07-20T10:00:27Z</time>
      </trkpt>
      <trkpt lat="44.52804" lon="4.46949">
        <ele>405.33</ele>
        <time>2020-07-20T10:00:42Z</time>
      </trkpt>
      <trkpt lat="44.52804" lon="4.46949">
        <ele>405.33</ele>
        <time>2020-07-20T10:00:57Z</time>
      </trkpt>
      <trkpt lat="44.52804" lon="4.46947">
        <ele>405.33</ele>
        <time>2020-07-20T10:01:12Z</time>
      </trkpt>
      <trkpt lat="44.52802" lon="4.46944">
        <ele>405.33</ele>
        <time>2020-07-20T10:01:27Z</time>
      </trkpt>
      <trkpt lat="44.52801" lon="4.46943">
        <ele>405.81</ele>
        <time>2020-07-20T10:01:42Z</time>
      </trkpt>
      <trkpt lat="44.528" lon="4.46942">
        <ele>405.81</ele>
        <time>2020-07-20T10:01:57Z</time>
      </trkpt>
      <trkpt lat="44.52801" lon="4.46947">
        <ele>405.81</ele>
        <time>2020-07-20T10:02:12Z</time>
      </trkpt>
      <trkpt lat="44.52801" lon="4.46948">
        <ele>405.81</ele>
        <time>2020-07-20T10:02:27Z</time>
      </trkpt>
      <trkpt lat="44.52801" lon="4.46947">
        <ele>405.81</ele>
        <time>2020-07-20T10:02:42Z</time>
      </trkpt>
      <trkpt lat="44.52805" lon="4.46949">
        <ele>406.29</ele>
        <time>2020-07-20T10:02:57Z</time>
      </trkpt>
      <trkpt lat="44.52814" lon="4.46957">
        <ele>406.29</ele>
        <time>2020-07-20T10:03:12Z</time>
      </trkpt>
      <trkpt lat="44.52811" lon="4.46956">
        <ele>406.29</ele>
        <time>2020-07-20T10:03:27Z</time>
      </trkpt>
      <trkpt lat="44.52808" lon="4.46955">
        <ele>405.81</ele>
        <time>2020-07-20T10:03:42Z</time>
      </trkpt>
      <trkpt lat="44.52806" lon="4.46952">
        <ele>406.29</ele>
        <time>2020-07-20T10:03:57Z</time>
      </trkpt>
      <trkpt lat="44.52804" lon="4.4695">
        <ele>406.29</ele>
        <time>2020-07-20T10:04:12Z</time>
      </trkpt>
      <trkpt lat="44.52804" lon="4.4695">
        <ele>406.29</ele>
        <time>2020-07-20T10:04:27Z</time>
      </trkpt>
      <trkpt lat="44.52804" lon="4.4695">
        <ele>406.77</ele>
        <time>2020-07-20T10:04:42Z</time>
      </trkpt>
      <trkpt lat="44.52806" lon="4.46951">
        <ele>406.77</ele>
        <time>2020-07-20T10:04:57Z</time>
      </trkpt>
      <trkpt lat="44.52807" lon="4.46951">
        <ele>406.77</ele>
        <time>2020-07-20T10:05:12Z</time>
      </trkpt>
      <trkpt lat="44.52804" lon="4.46951">
        <ele>407.26</ele>
        <time>2020-07-20T10:05:27Z</time>
      </trkpt>
      <trkpt lat="44.52805" lon="4.4695">
        <ele>407.26</ele>
        <time>2020-07-20T10:05:42Z</time>
      </trkpt>
      <trkpt lat="44.52805" lon="4.4695">
        <ele>406.77</ele>
        <time>2020-07-20T10:05:57Z</time>
      </trkpt>
      <trkpt lat="44.52805" lon="4.46951">
        <ele>407.26</ele>
        <time>2020-07-20T10:06:12Z</time>
      </trkpt>
      <trkpt lat="44.52807" lon="4.46951">
        <ele>407.26</ele>
        <time>2020-07-20T10:06:27Z</time>
      </trkpt>
      <trkpt lat="44.52807" lon="4.46952">
        <ele>407.26</ele>
        <time>2020-07-20T10:06:42Z</time>
      </trkpt>
      <trkpt lat="44.52807" lon="4.46954">
        <ele>407.26</ele>
        <time>2020-07-20T10:06:57Z</time>
      </trkpt>
      <trkpt lat="44.52811" lon="4.46954">
        <ele>407.74</ele>
        <time>2020-07-20T10:07:12Z</time>
      </trkpt>
      <trkpt lat="44.52809" lon="4.46953">
        <ele>407.74</ele>
        <time>2020-07-20T10:07:27Z</time>
      </trkpt>
      <trkpt lat="44.52807" lon="4.46952">
        <ele>407.74</ele>
        <time>2020-07-20T10:07:42Z</time>
      </trkpt>
      <trkpt lat="44.52805" lon="4.46949">
        <ele>408.22</ele>
        <time>2020-07-20T10:07:57Z</time>
      </trkpt>
      <trkpt lat="44.52805" lon="4.4695">
        <ele>407.74</ele>
        <time>2020-07-20T10:08:12Z</time>
      </trkpt>
      <trkpt lat="44.52808" lon="4.46954">
        <ele>407.74</ele>
        <time>2020-07-20T10:08:27Z</time>
      </trkpt>
      <trkpt lat="44.52808" lon="4.46952">
        <ele>407.74</ele>
        <time>2020-07-20T10:08:42Z</time>
      </trkpt>
      <trkpt lat="44.52804" lon="4.46947">
        <ele>407.74</ele>
        <time>2020-07-20T10:08:57Z</time>
      </trkpt>
      <trkpt lat="44.52805" lon="4.46951">
        <ele>407.74</ele>
        <time>2020-07-20T10:09:12Z</time>
      </trkpt>
      <trkpt lat="44.52799" lon="4.46945">
        <ele>407.74</ele>
        <time>2020-07-20T10:09:27Z</time>
      </trkpt>
      <trkpt lat="44.52802" lon="4.46949">
        <ele>408.22</ele>
        <time>2020-07-20T10:09:42Z</time>
      </trkpt>
      <trkpt lat="44.52806" lon="4.46953">
        <ele>407.74</ele>
        <time>2020-07-20T10:09:57Z</time>
      </trkpt>
      <trkpt lat="44.5281" lon="4.46956">
        <ele>407.74</ele>
        <time>2020-07-20T10:10:12Z</time>
      </trkpt>
      <trkpt lat="44.52809" lon="4.46954">
        <ele>408.22</ele>
        <time>2020-07-20T10:10:27Z</time>
      </trkpt>
      <trkpt lat="44.52806" lon="4.46952">
        <ele>408.22</ele>
        <time>2020-07-20T10:10:42Z</time>
      </trkpt>
      <trkpt lat="44.52803" lon="4.46949">
        <ele>408.22</ele>
        <time>2020-07-20T10:10:57Z</time>
      </trkpt>
      <trkpt lat="44.52807" lon="4.4695">
        <ele>408.7</ele>
        <time>2020-07-20T10:11:12Z</time>
      </trkpt>
      <trkpt lat="44.52809" lon="4.46951">
        <ele>408.7</ele>
        <time>2020-07-20T10:11:27Z</time>
      </trkpt>
      <trkpt lat="44.52809" lon="4.46951">
        <ele>409.18</ele>
        <time>2020-07-20T10:11:42Z</time>
      </trkpt>
      <trkpt lat="44.52809" lon="4.46952">
        <ele>408.7</ele>
        <time>2020-07-20T10:11:57Z</time>
      </trkpt>
      <trkpt lat="44.52807" lon="4.4695">
        <ele>408.7</ele>
        <time>2020-07-20T10:12:12Z</time>
      </trkpt>
      <trkpt lat="44.52802" lon="4.46944">
        <ele>408.7</ele>
        <time>2020-07-20T10:12:27Z</time>
      </trkpt>
      <trkpt lat="44.52797" lon="4.46941">
        <ele>408.7</ele>
        <time>2020-07-20T10:12:42Z</time>
      </trkpt>
      <trkpt lat="44.52796" lon="4.46939">
        <ele>409.18</ele>
        <time>2020-07-20T10:12:57Z</time>
      </trkpt>
      <trkpt lat="44.52796" lon="4.46936">
        <ele>409.18</ele>
        <time>2020-07-20T10:13:12Z</time>
      </trkpt>
      <trkpt lat="44.52797" lon="4.46938">
        <ele>409.18</ele>
        <time>2020-07-20T10:13:27Z</time>
      </trkpt>
      <trkpt lat="44.52798" lon="4.46939">
        <ele>409.18</ele>
        <time>2020-07-20T10:13:42Z</time>
      </trkpt>
      <trkpt lat="44.52797" lon="4.46939">
        <ele>409.66</ele>
        <time>2020-07-20T10:13:57Z</time>
      </trkpt>
      <trkpt lat="44.52802" lon="4.46941">
        <ele>409.66</ele>
        <time>2020-07-20T10:14:12Z</time>
      </trkpt>
      <trkpt lat="44.52795" lon="4.46941">
        <ele>409.66</ele>
        <time>2020-07-20T10:14:27Z</time>
      </trkpt>
      <trkpt lat="44.52795" lon="4.4694">
        <ele>409.66</ele>
        <time>2020-07-20T10:14:42Z</time>
      </trkpt>
      <trkpt lat="44.52795" lon="4.46938">
        <ele>410.14</ele>
        <time>2020-07-20T10:14:57Z</time>
      </trkpt>
      <trkpt lat="44.528" lon="4.46935">
        <ele>410.62</ele>
        <time>2020-07-20T10:15:12Z</time>
      </trkpt>
      <trkpt lat="44.52801" lon="4.46936">
        <ele>410.14</ele>
        <time>2020-07-20T10:15:27Z</time>
      </trkpt>
      <trkpt lat="44.52801" lon="4.46937">
        <ele>410.14</ele>
        <time>2020-07-20T10:15:42Z</time>
      </trkpt>
      <trkpt lat="44.52803" lon="4.4694">
        <ele>410.14</ele>
        <time>2020-07-20T10:15:57Z</time>
      </trkpt>
      <trkpt lat="44.52803" lon="4.46944">
        <ele>410.14</ele>
        <time>2020-07-20T10:16:12Z</time>
      </trkpt>
      <trkpt lat="44.52807" lon="4.46951">
        <ele>410.62</ele>
        <time>2020-07-20T10:16:27Z</time>
      </trkpt>
      <trkpt lat="44.52809" lon="4.46953">
        <ele>410.62</ele>
        <time>2020-07-20T10:16:42Z</time>
      </trkpt>
      <trkpt lat="44.5281" lon="4.46954">
        <ele>410.62</ele>
        <time>2020-07-20T10:16:57Z</time>
      </trkpt>
      <trkpt lat="44.5281" lon="4.46956">
        <ele>411.1</ele>
        <time>2020-07-20T10:17:12Z</time>
      </trkpt>
      <trkpt lat="44.52809" lon="4.46955">
        <ele>411.1</ele>
        <time>2020-07-20T10:17:27Z</time>
      </trkpt>
      <trkpt lat="44.52808" lon="4.46953">
        <ele>410.62</ele>
        <time>2020-07-20T10:17:42Z</time>
      </trkpt>
      <trkpt lat="44.52805" lon="4.4695">
        <ele>411.58</ele>
        <time>2020-07-20T10:17:57Z</time>
      </trkpt>
      <trkpt lat="44.52805" lon="4.46949">
        <ele>411.58</ele>
        <time>2020-07-20T10:18:12Z</time>
      </trkpt>
      <trkpt lat="44.52805" lon="4.46949">
        <ele>411.58</ele>
        <time>2020-07-20T10:18:27Z</time>
      </trkpt>
      <trkpt lat="44.52806" lon="4.46949">
        <ele>412.06</ele>
        <time>2020-07-20T10:18:42Z</time>
      </trkpt>
      <trkpt lat="44.52806" lon="4.46948">
        <ele>411.58</ele>
        <time>2020-07-20T10:18:57Z</time>
      </trkpt>
      <trkpt lat="44.52806" lon="4.46948">
        <ele>412.06</ele>
        <time>2020-07-20T10:19:12Z</time>
      </trkpt>
      <trkpt lat="44.52804" lon="4.46945">
        <ele>412.06</ele>
        <time>2020-07-20T10:19:27Z</time>
      </trkpt>
      <trkpt lat="44.52805" lon="4.46944">
        <ele>411.58</ele>
        <time>2020-07-20T10:19:42Z</time>
      </trkpt>
      <trkpt lat="44.52807" lon="4.46948">
        <ele>412.06</ele>
        <time>2020-07-20T10:19:57Z</time>
      </trkpt>
      <trkpt lat="44.52809" lon="4.46954">
        <ele>413.02</ele>
        <time>2020-07-20T10:20:12Z</time>
      </trkpt>
      <trkpt lat="44.52806" lon="4.46957">
        <ele>413.02</ele>
        <time>2020-07-20T10:20:27Z</time>
      </trkpt>
      <trkpt lat="44.52802" lon="4.46954">
        <ele>413.02</ele>
        <time>2020-07-20T10:20:42Z</time>
      </trkpt>
      <trkpt lat="44.52802" lon="4.46954">
        <ele>413.02</ele>
        <time>2020-07-20T10:20:57Z</time>
      </trkpt>
      <trkpt lat="44.52803" lon="4.46955">
        <ele>413.02</ele>
        <time>2020-07-20T10:21:12Z</time>
      </trkpt>
      <trkpt lat="44.52808" lon="4.46956">
        <ele>413.02</ele>
        <time>2020-07-20T10:21:27Z</time>
      </trkpt>
      <trkpt lat="44.52812" lon="4.46958">
        <ele>413.02</ele>
        <time>2020-07-20T10:21:42Z</time>
      </trkpt>
      <trkpt lat="44.52814" lon="4.46957">
        <ele>413.02</ele>
        <time>2020-07-20T10:21:57Z</time>
      </trkpt>
      <trkpt lat="44.52811" lon="4.46958">
        <ele>413.02</ele>
        <time>2020-07-20T10:22:12Z</time>
      </trkpt>
      <trkpt lat="44.52808" lon="4.46957">
        <ele>413.02</ele>
        <time>2020-07-20T10:22:27Z</time>
      </trkpt>
      <trkpt lat="44.52806" lon="4.46957">
        <ele>413.02</ele>
        <time>2020-07-20T10:22:42Z</time>
      </trkpt>
      <trkpt lat="44.52806" lon="4.46954">
        <ele>413.02</ele>
        <time>2020-07-20T10:22:57Z</time>
      </trkpt>
      <trkpt lat="44.52807" lon="4.46952">
        <ele>413.5</ele>
        <time>2020-07-20T10:23:12Z</time>
      </trkpt>
      <trkpt lat="44.52806" lon="4.46952">
        <ele>413.5</ele>
        <time>2020-07-20T10:23:27Z</time>
      </trkpt>
      <trkpt lat="44.52804" lon="4.46951">
        <ele>413.02</ele>
        <time>2020-07-20T10:23:42Z</time>
      </trkpt>
      <trkpt lat="44.52804" lon="4.4695">
        <ele>413.5</ele>
        <time>2020-07-20T10:23:57Z</time>
      </trkpt>
      <trkpt lat="44.52802" lon="4.46949">
        <ele>413.5</ele>
        <time>2020-07-20T10:24:12Z</time>
      </trkpt>
      <trkpt lat="44.52804" lon="4.46948">
        <ele>413.98</ele>
        <time>2020-07-20T10:24:27Z</time>
      </trkpt>
      <trkpt lat="44.52807" lon="4.46951">
        <ele>413.98</ele>
        <time>2020-07-20T10:24:42Z</time>
      </trkpt>
      <trkpt lat="44.52805" lon="4.46949">
        <ele>413.5</ele>
        <time>2020-07-20T10:24:57Z</time>
      </trkpt>
      <trkpt lat="44.52805" lon="4.46948">
        <ele>413.5</ele>
        <time>2020-07-20T10:25:12Z</time>
      </trkpt>
      <trkpt lat="44.52806" lon="4.4695">
        <ele>413.5</ele>
        <time>2020-07-20T10:25:27Z</time>
      </trkpt>
      <trkpt lat="44.52807" lon="4.46955">
        <ele>413.5</ele>
        <time>2020-07-20T10:25:42Z</time>
      </trkpt>
      <trkpt lat="44.52808" lon="4.46959">
        <ele>413.5</ele>
        <time>2020-07-20T10:25:57Z</time>
      </trkpt>
      <trkpt lat="44.52808" lon="4.46962">
        <ele>413.98</ele>
        <time>2020-07-20T10:26:12Z</time>
      </trkpt>
      <trkpt lat="44.52806" lon="4.46957">
        <ele>413.98</ele>
        <time>2020-07-20T10:26:27Z</time>
      </trkpt>
      <trkpt lat="44.52807" lon="4.46955">
        <ele>413.98</ele>
        <time>2020-07-20T10:26:42Z</time>
      </trkpt>
      <trkpt lat="44.52809" lon="4.46955">
        <ele>414.47</ele>
        <time>2020-07-20T10:26:57Z</time>
      </trkpt>
      <trkpt lat="44.52811" lon="4.46958">
        <ele>414.47</ele>
        <time>2020-07-20T10:27:12Z</time>
      </trkpt>
      <trkpt lat="44.5281" lon="4.4696">
        <ele>414.47</ele>
        <time>2020-07-20T10:27:27Z</time>
      </trkpt>
      <trkpt lat="44.52808" lon="4.46961">
        <ele>414.95</ele>
        <time>2020-07-20T10:27:42Z</time>
      </trkpt>
      <trkpt lat="44.52814" lon="4.46955">
        <ele>414.95</ele>
        <time>2020-07-20T10:27:57Z</time>
      </trkpt>
      <trkpt lat="44.52817" lon="4.46956">
        <ele>414.95</ele>
        <time>2020-07-20T10:28:12Z</time>
      </trkpt>
      <trkpt lat="44.52818" lon="4.46958">
        <ele>414.95</ele>
        <time>2020-07-20T10:28:27Z</time>
      </trkpt>
      <trkpt lat="44.52818" lon="4.46944">
        <ele>413.98</ele>
        <time>2020-07-20T10:28:42Z</time>
      </trkpt>
      <trkpt lat="44.52821" lon="4.46929">
        <ele>413.02</ele>
        <time>2020-07-20T10:28:57Z</time>
      </trkpt>
      <trkpt lat="44.52829" lon="4.46911">
        <ele>413.98</ele>
        <time>2020-07-20T10:29:12Z</time>
      </trkpt>
      <trkpt lat="44.52831" lon="4.46891">
        <ele>413.5</ele>
        <time>2020-07-20T10:29:27Z</time>
      </trkpt>
      <trkpt lat="44.5283" lon="4.46869">
        <ele>413.5</ele>
        <time>2020-07-20T10:29:42Z</time>
      </trkpt>
      <trkpt lat="44.52829" lon="4.46847">
        <ele>413.02</ele>
        <time>2020-07-20T10:29:57Z</time>
      </trkpt>
      <trkpt lat="44.52832" lon="4.46825">
        <ele>413.02</ele>
        <time>2020-07-20T10:30:12Z</time>
      </trkpt>
      <trkpt lat="44.52837" lon="4.46803">
        <ele>411.58</ele>
        <time>2020-07-20T10:30:27Z</time>
      </trkpt>
      <trkpt lat="44.52843" lon="4.46783">
        <ele>409.66</ele>
        <time>2020-07-20T10:30:42Z</time>
      </trkpt>
      <trkpt lat="44.52849" lon="4.46764">
        <ele>407.26</ele>
        <time>2020-07-20T10:30:57Z</time>
      </trkpt>
      <trkpt lat="44.52856" lon="4.46742">
        <ele>404.85</ele>
        <time>2020-07-20T10:31:12Z</time>
      </trkpt>
      <trkpt lat="44.52861" lon="4.46722">
        <ele>402.93</ele>
        <time>2020-07-20T10:31:27Z</time>
      </trkpt>
      <trkpt lat="44.52864" lon="4.46701">
        <ele>400.05</ele>
        <time>2020-07-20T10:31:42Z</time>
      </trkpt>
      <trkpt lat="44.52865" lon="4.46677">
        <ele>398.6</ele>
        <time>2020-07-20T10:31:57Z</time>
      </trkpt>
      <trkpt lat="44.52862" lon="4.46651">
        <ele>396.2</ele>
        <time>2020-07-20T10:32:12Z</time>
      </trkpt>
      <trkpt lat="44.52862" lon="4.46624">
        <ele>395.72</ele>
        <time>2020-07-20T10:32:27Z</time>
      </trkpt>
      <trkpt lat="44.52862" lon="4.46599">
        <ele>395.24</ele>
        <time>2020-07-20T10:32:42Z</time>
      </trkpt>
      <trkpt lat="44.52858" lon="4.46578">
        <ele>394.76</ele>
        <time>2020-07-20T10:32:57Z</time>
      </trkpt>
      <trkpt lat="44.5286" lon="4.46568">
        <ele>394.28</ele>
        <time>2020-07-20T10:33:12Z</time>
      </trkpt>
      <trkpt lat="44.5286" lon="4.46567">
        <ele>394.28</ele>
        <time>2020-07-20T10:33:27Z</time>
      </trkpt>
      <trkpt lat="44.52863" lon="4.46568">
        <ele>394.28</ele>
        <time>2020-07-20T10:33:42Z</time>
      </trkpt>
      <trkpt lat="44.52864" lon="4.46567">
        <ele>394.76</ele>
        <time>2020-07-20T10:33:57Z</time>
      </trkpt>
      <trkpt lat="44.52861" lon="4.4657">
        <ele>393.32</ele>
        <time>2020-07-20T10:34:12Z</time>
      </trkpt>
      <trkpt lat="44.5286" lon="4.46569">
        <ele>393.32</ele>
        <time>2020-07-20T10:34:27Z</time>
      </trkpt>
      <trkpt lat="44.52859" lon="4.4657">
        <ele>393.32</ele>
        <time>2020-07-20T10:34:42Z</time>
      </trkpt>
      <trkpt lat="44.52858" lon="4.4657">
        <ele>393.32</ele>
        <time>2020-07-20T10:34:57Z</time>
      </trkpt>
      <trkpt lat="44.52858" lon="4.4657">
        <ele>393.32</ele>
        <time>2020-07-20T10:35:12Z</time>
      </trkpt>
      <trkpt lat="44.5286" lon="4.46571">
        <ele>393.32</ele>
        <time>2020-07-20T10:35:27Z</time>
      </trkpt>
      <trkpt lat="44.52864" lon="4.46572">
        <ele>393.8</ele>
        <time>2020-07-20T10:35:42Z</time>
      </trkpt>
      <trkpt lat="44.52862" lon="4.46574">
        <ele>393.32</ele>
        <time>2020-07-20T10:35:57Z</time>
      </trkpt>
      <trkpt lat="44.52861" lon="4.46574">
        <ele>393.32</ele>
        <time>2020-07-20T10:36:12Z</time>
      </trkpt>
      <trkpt lat="44.52861" lon="4.46573">
        <ele>392.84</ele>
        <time>2020-07-20T10:36:27Z</time>
      </trkpt>
      <trkpt lat="44.52861" lon="4.46572">
        <ele>392.84</ele>
        <time>2020-07-20T10:36:42Z</time>
      </trkpt>
      <trkpt lat="44.5286" lon="4.46573">
        <ele>393.32</ele>
        <time>2020-07-20T10:36:57Z</time>
      </trkpt>
      <trkpt lat="44.5286" lon="4.46573">
        <ele>392.84</ele>
        <time>2020-07-20T10:37:12Z</time>
      </trkpt>
      <trkpt lat="44.52861" lon="4.46572">
        <ele>392.84</ele>
        <time>2020-07-20T10:37:27Z</time>
      </trkpt>
      <trkpt lat="44.52861" lon="4.46572">
        <ele>392.84</ele>
        <time>2020-07-20T10:37:42Z</time>
      </trkpt>
      <trkpt lat="44.52861" lon="4.46569">
        <ele>394.28</ele>
        <time>2020-07-20T10:37:57Z</time>
      </trkpt>
      <trkpt lat="44.5286" lon="4.46566">
        <ele>393.8</ele>
        <time>2020-07-20T10:38:12Z</time>
      </trkpt>
      <trkpt lat="44.52858" lon="4.46566">
        <ele>394.28</ele>
        <time>2020-07-20T10:38:27Z</time>
      </trkpt>
      <trkpt lat="44.52859" lon="4.46569">
        <ele>393.8</ele>
        <time>2020-07-20T10:38:42Z</time>
      </trkpt>
      <trkpt lat="44.5286" lon="4.46567">
        <ele>394.76</ele>
        <time>2020-07-20T10:38:57Z</time>
      </trkpt>
      <trkpt lat="44.52862" lon="4.46562">
        <ele>394.28</ele>
        <time>2020-07-20T10:39:12Z</time>
      </trkpt>
      <trkpt lat="44.52853" lon="4.46543">
        <ele>394.28</ele>
        <time>2020-07-20T10:39:27Z</time>
      </trkpt>
      <trkpt lat="44.52843" lon="4.46526">
        <ele>394.76</ele>
        <time>2020-07-20T10:39:42Z</time>
      </trkpt>
      <trkpt lat="44.52832" lon="4.46511">
        <ele>396.2</ele>
        <time>2020-07-20T10:39:57Z</time>
      </trkpt>
      <trkpt lat="44.52821" lon="4.46496">
        <ele>398.6</ele>
        <time>2020-07-20T10:40:12Z</time>
      </trkpt>
      <trkpt lat="44.52813" lon="4.46479">
        <ele>399.57</ele>
        <time>2020-07-20T10:40:27Z</time>
      </trkpt>
      <trkpt lat="44.52805" lon="4.46463">
        <ele>400.53</ele>
        <time>2020-07-20T10:40:42Z</time>
      </trkpt>
      <trkpt lat="44.52794" lon="4.46444">
        <ele>400.53</ele>
        <time>2020-07-20T10:40:57Z</time>
      </trkpt>
      <trkpt lat="44.52782" lon="4.46426">
        <ele>400.53</ele>
        <time>2020-07-20T10:41:12Z</time>
      </trkpt>
      <trkpt lat="44.52769" lon="4.4641">
        <ele>400.05</ele>
        <time>2020-07-20T10:41:27Z</time>
      </trkpt>
      <trkpt lat="44.52759" lon="4.46394">
        <ele>399.57</ele>
        <time>2020-07-20T10:41:42Z</time>
      </trkpt>
      <trkpt lat="44.52749" lon="4.46371">
        <ele>398.12</ele>
        <time>2020-07-20T10:41:57Z</time>
      </trkpt>
      <trkpt lat="44.5274" lon="4.46349">
        <ele>396.68</ele>
        <time>2020-07-20T10:42:12Z</time>
      </trkpt>
      <trkpt lat="44.5273" lon="4.46326">
        <ele>397.16</ele>
        <time>2020-07-20T10:42:27Z</time>
      </trkpt>
      <trkpt lat="44.52723" lon="4.46306">
        <ele>397.16</ele>
        <time>2020-07-20T10:42:42Z</time>
      </trkpt>
      <trkpt lat="44.52716" lon="4.46283">
        <ele>397.64</ele>
        <time>2020-07-20T10:42:57Z</time>
      </trkpt>
      <trkpt lat="44.52708" lon="4.4626">
        <ele>397.16</ele>
        <time>2020-07-20T10:43:12Z</time>
      </trkpt>
      <trkpt lat="44.52704" lon="4.4624">
        <ele>395.72</ele>
        <time>2020-07-20T10:43:27Z</time>
      </trkpt>
      <trkpt lat="44.52705" lon="4.46222">
        <ele>393.8</ele>
        <time>2020-07-20T10:43:42Z</time>
      </trkpt>
      <trkpt lat="44.52698" lon="4.46205">
        <ele>390.91</ele>
        <time>2020-07-20T10:43:57Z</time>
      </trkpt>
      <trkpt lat="44.52692" lon="4.46189">
        <ele>388.03</ele>
        <time>2020-07-20T10:44:12Z</time>
      </trkpt>
      <trkpt lat="44.52685" lon="4.46173">
        <ele>385.15</ele>
        <time>2020-07-20T10:44:27Z</time>
      </trkpt>
      <trkpt lat="44.52679" lon="4.46159">
        <ele>382.26</ele>
        <time>2020-07-20T10:44:42Z</time>
      </trkpt>
      <trkpt lat="44.5267" lon="4.46147">
        <ele>379.38</ele>
        <time>2020-07-20T10:44:57Z</time>
      </trkpt>
      <trkpt lat="44.52663" lon="4.46132">
        <ele>377.45</ele>
        <time>2020-07-20T10:45:12Z</time>
      </trkpt>
      <trkpt lat="44.52655" lon="4.46118">
        <ele>374.57</ele>
        <time>2020-07-20T10:45:27Z</time>
      </trkpt>
      <trkpt lat="44.52646" lon="4.46103">
        <ele>372.65</ele>
        <time>2020-07-20T10:45:42Z</time>
      </trkpt>
      <trkpt lat="44.52638" lon="4.46087">
        <ele>369.28</ele>
        <time>2020-07-20T10:45:57Z</time>
      </trkpt>
      <trkpt lat="44.52632" lon="4.4607">
        <ele>366.88</ele>
        <time>2020-07-20T10:46:12Z</time>
      </trkpt>
      <trkpt lat="44.52625" lon="4.46052">
        <ele>364.96</ele>
        <time>2020-07-20T10:46:27Z</time>
      </trkpt>
      <trkpt lat="44.52619" lon="4.46034">
        <ele>363.52</ele>
        <time>2020-07-20T10:46:42Z</time>
      </trkpt>
      <trkpt lat="44.52617" lon="4.46013">
        <ele>362.07</ele>
        <time>2020-07-20T10:46:57Z</time>
      </trkpt>
      <trkpt lat="44.52622" lon="4.45991">
        <ele>360.63</ele>
        <time>2020-07-20T10:47:12Z</time>
      </trkpt>
      <trkpt lat="44.52629" lon="4.45973">
        <ele>360.15</ele>
        <time>2020-07-20T10:47:27Z</time>
      </trkpt>
      <trkpt lat="44.52637" lon="4.45955">
        <ele>360.63</ele>
        <time>2020-07-20T10:47:42Z</time>
      </trkpt>
      <trkpt lat="44.52643" lon="4.45937">
        <ele>361.11</ele>
        <time>2020-07-20T10:47:57Z</time>
      </trkpt>
      <trkpt lat="44.52654" lon="4.45927">
        <ele>362.55</ele>
        <time>2020-07-20T10:48:12Z</time>
      </trkpt>
      <trkpt lat="44.52668" lon="4.45921">
        <ele>362.55</ele>
        <time>2020-07-20T10:48:27Z</time>
      </trkpt>
      <trkpt lat="44.52681" lon="4.4591">
        <ele>363.52</ele>
        <time>2020-07-20T10:48:42Z</time>
      </trkpt>
      <trkpt lat="44.52695" lon="4.459">
        <ele>364.48</ele>
        <time>2020-07-20T10:48:57Z</time>
      </trkpt>
      <trkpt lat="44.52708" lon="4.4589">
        <ele>365.44</ele>
        <time>2020-07-20T10:49:12Z</time>
      </trkpt>
      <trkpt lat="44.52719" lon="4.4588">
        <ele>366.4</ele>
        <time>2020-07-20T10:49:27Z</time>
      </trkpt>
      <trkpt lat="44.52733" lon="4.45873">
        <ele>367.36</ele>
        <time>2020-07-20T10:49:42Z</time>
      </trkpt>
      <trkpt lat="44.52747" lon="4.45863">
        <ele>368.8</ele>
        <time>2020-07-20T10:49:57Z</time>
      </trkpt>
      <trkpt lat="44.52757" lon="4.45854">
        <ele>369.76</ele>
        <time>2020-07-20T10:50:12Z</time>
      </trkpt>
      <trkpt lat="44.5277" lon="4.45843">
        <ele>371.21</ele>
        <time>2020-07-20T10:50:27Z</time>
      </trkpt>
      <trkpt lat="44.52781" lon="4.45827">
        <ele>370.24</ele>
        <time>2020-07-20T10:50:42Z</time>
      </trkpt>
      <trkpt lat="44.52781" lon="4.45806">
        <ele>371.21</ele>
        <time>2020-07-20T10:50:57Z</time>
      </trkpt>
      <trkpt lat="44.52779" lon="4.45784">
        <ele>371.21</ele>
        <time>2020-07-20T10:51:12Z</time>
      </trkpt>
      <trkpt lat="44.52777" lon="4.45761">
        <ele>371.69</ele>
        <time>2020-07-20T10:51:27Z</time>
      </trkpt>
      <trkpt lat="44.52778" lon="4.45741">
        <ele>373.13</ele>
        <time>2020-07-20T10:51:42Z</time>
      </trkpt>
      <trkpt lat="44.52779" lon="4.45717">
        <ele>373.13</ele>
        <time>2020-07-20T10:51:57Z</time>
      </trkpt>
      <trkpt lat="44.52779" lon="4.45694">
        <ele>373.61</ele>
        <time>2020-07-20T10:52:12Z</time>
      </trkpt>
      <trkpt lat="44.52779" lon="4.45671">
        <ele>374.57</ele>
        <time>2020-07-20T10:52:27Z</time>
      </trkpt>
      <trkpt lat="44.52781" lon="4.45648">
        <ele>375.05</ele>
        <time>2020-07-20T10:52:42Z</time>
      </trkpt>
      <trkpt lat="44.52782" lon="4.45629">
        <ele>376.49</ele>
        <time>2020-07-20T10:52:57Z</time>
      </trkpt>
      <trkpt lat="44.52782" lon="4.4561">
        <ele>377.94</ele>
        <time>2020-07-20T10:53:12Z</time>
      </trkpt>
      <trkpt lat="44.5278" lon="4.45592">
        <ele>378.9</ele>
        <time>2020-07-20T10:53:27Z</time>
      </trkpt>
      <trkpt lat="44.52779" lon="4.45571">
        <ele>380.82</ele>
        <time>2020-07-20T10:53:42Z</time>
      </trkpt>
      <trkpt lat="44.52779" lon="4.45552">
        <ele>382.74</ele>
        <time>2020-07-20T10:53:57Z</time>
      </trkpt>
      <trkpt lat="44.52776" lon="4.45532">
        <ele>383.7</ele>
        <time>2020-07-20T10:54:12Z</time>
      </trkpt>
      <trkpt lat="44.52775" lon="4.4551">
        <ele>384.66</ele>
        <time>2020-07-20T10:54:27Z</time>
      </trkpt>
      <trkpt lat="44.52778" lon="4.45487">
        <ele>383.22</ele>
        <time>2020-07-20T10:54:42Z</time>
      </trkpt>
      <trkpt lat="44.52785" lon="4.45464">
        <ele>382.26</ele>
        <time>2020-07-20T10:54:57Z</time>
      </trkpt>
      <trkpt lat="44.52789" lon="4.45442">
        <ele>380.34</ele>
        <time>2020-07-20T10:55:12Z</time>
      </trkpt>
      <trkpt lat="44.52789" lon="4.45418">
        <ele>378.9</ele>
        <time>2020-07-20T10:55:27Z</time>
      </trkpt>
      <trkpt lat="44.52786" lon="4.45396">
        <ele>377.45</ele>
        <time>2020-07-20T10:55:42Z</time>
      </trkpt>
      <trkpt lat="44.52781" lon="4.45373">
        <ele>376.97</ele>
        <time>2020-07-20T10:55:57Z</time>
      </trkpt>
      <trkpt lat="44.52773" lon="4.45349">
        <ele>377.45</ele>
        <time>2020-07-20T10:56:12Z</time>
      </trkpt>
      <trkpt lat="44.52766" lon="4.45325">
        <ele>376.97</ele>
        <time>2020-07-20T10:56:27Z</time>
      </trkpt>
      <trkpt lat="44.52759" lon="4.45305">
        <ele>376.49</ele>
        <time>2020-07-20T10:56:42Z</time>
      </trkpt>
      <trkpt lat="44.5275" lon="4.45282">
        <ele>375.53</ele>
        <time>2020-07-20T10:56:57Z</time>
      </trkpt>
      <trkpt lat="44.52741" lon="4.45259">
        <ele>374.57</ele>
        <time>2020-07-20T10:57:12Z</time>
      </trkpt>
      <trkpt lat="44.5274" lon="4.45249">
        <ele>374.09</ele>
        <time>2020-07-20T10:57:27Z</time>
      </trkpt>
      <trkpt lat="44.52739" lon="4.45246">
        <ele>374.09</ele>
        <time>2020-07-20T10:57:42Z</time>
      </trkpt>
      <trkpt lat="44.52739" lon="4.45244">
        <ele>373.61</ele>
        <time>2020-07-20T10:57:57Z</time>
      </trkpt>
      <trkpt lat="44.52739" lon="4.45244">
        <ele>373.61</ele>
        <time>2020-07-20T10:58:12Z</time>
      </trkpt>
      <trkpt lat="44.52738" lon="4.4524">
        <ele>374.09</ele>
        <time>2020-07-20T10:58:27Z</time>
      </trkpt>
      <trkpt lat="44.52741" lon="4.45231">
        <ele>374.09</ele>
        <time>2020-07-20T10:58:42Z</time>
      </trkpt>
      <trkpt lat="44.52743" lon="4.45209">
        <ele>373.61</ele>
        <time>2020-07-20T10:58:57Z</time>
      </trkpt>
      <trkpt lat="44.52734" lon="4.4519">
        <ele>374.57</ele>
        <time>2020-07-20T10:59:12Z</time>
      </trkpt>
      <trkpt lat="44.52725" lon="4.4517">
        <ele>375.05</ele>
        <time>2020-07-20T10:59:27Z</time>
      </trkpt>
      <trkpt lat="44.52718" lon="4.45149">
        <ele>376.01</ele>
        <time>2020-07-20T10:59:42Z</time>
      </trkpt>
      <trkpt lat="44.52711" lon="4.45127">
        <ele>377.45</ele>
        <time>2020-07-20T10:59:57Z</time>
      </trkpt>
      <trkpt lat="44.52707" lon="4.45106">
        <ele>376.97</ele>
        <time>2020-07-20T11:00:12Z</time>
      </trkpt>
      <trkpt lat="44.52706" lon="4.45084">
        <ele>377.94</ele>
        <time>2020-07-20T11:00:27Z</time>
      </trkpt>
      <trkpt lat="44.52706" lon="4.45063">
        <ele>379.38</ele>
        <time>2020-07-20T11:00:42Z</time>
      </trkpt>
      <trkpt lat="44.52704" lon="4.45042">
        <ele>378.9</ele>
        <time>2020-07-20T11:00:57Z</time>
      </trkpt>
      <trkpt lat="44.527" lon="4.45017">
        <ele>378.9</ele>
        <time>2020-07-20T11:01:12Z</time>
      </trkpt>
      <trkpt lat="44.52696" lon="4.44993">
        <ele>378.42</ele>
        <time>2020-07-20T11:01:27Z</time>
      </trkpt>
      <trkpt lat="44.52688" lon="4.44971">
        <ele>377.94</ele>
        <time>2020-07-20T11:01:42Z</time>
      </trkpt>
      <trkpt lat="44.52683" lon="4.44948">
        <ele>377.94</ele>
        <time>2020-07-20T11:01:57Z</time>
      </trkpt>
      <trkpt lat="44.52678" lon="4.44924">
        <ele>378.42</ele>
        <time>2020-07-20T11:02:12Z</time>
      </trkpt>
      <trkpt lat="44.52675" lon="4.44902">
        <ele>378.9</ele>
        <time>2020-07-20T11:02:27Z</time>
      </trkpt>
      <trkpt lat="44.5267" lon="4.44879">
        <ele>379.86</ele>
        <time>2020-07-20T11:02:42Z</time>
      </trkpt>
      <trkpt lat="44.52665" lon="4.44858">
        <ele>379.86</ele>
        <time>2020-07-20T11:02:57Z</time>
      </trkpt>
      <trkpt lat="44.52659" lon="4.44834">
        <ele>380.34</ele>
        <time>2020-07-20T11:03:12Z</time>
      </trkpt>
      <trkpt lat="44.52655" lon="4.4482">
        <ele>380.34</ele>
        <time>2020-07-20T11:03:27Z</time>
      </trkpt>
      <trkpt lat="44.52655" lon="4.44815">
        <ele>380.34</ele>
        <time>2020-07-20T11:03:42Z</time>
      </trkpt>
      <trkpt lat="44.52654" lon="4.44815">
        <ele>380.34</ele>
        <time>2020-07-20T11:03:57Z</time>
      </trkpt>
      <trkpt lat="44.52651" lon="4.44817">
        <ele>380.82</ele>
        <time>2020-07-20T11:04:12Z</time>
      </trkpt>
      <trkpt lat="44.52649" lon="4.44809">
        <ele>380.82</ele>
        <time>2020-07-20T11:04:27Z</time>
      </trkpt>
      <trkpt lat="44.52644" lon="4.44786">
        <ele>379.86</ele>
        <time>2020-07-20T11:04:42Z</time>
      </trkpt>
      <trkpt lat="44.52636" lon="4.44765">
        <ele>378.42</ele>
        <time>2020-07-20T11:04:57Z</time>
      </trkpt>
      <trkpt lat="44.52631" lon="4.44745">
        <ele>376.01</ele>
        <time>2020-07-20T11:05:12Z</time>
      </trkpt>
      <trkpt lat="44.52624" lon="4.44725">
        <ele>373.13</ele>
        <time>2020-07-20T11:05:27Z</time>
      </trkpt>
      <trkpt lat="44.52617" lon="4.44704">
        <ele>371.69</ele>
        <time>2020-07-20T11:05:42Z</time>
      </trkpt>
      <trkpt lat="44.52615" lon="4.44682">
        <ele>369.76</ele>
        <time>2020-07-20T11:05:57Z</time>
      </trkpt>
      <trkpt lat="44.52609" lon="4.44657">
        <ele>367.84</ele>
        <time>2020-07-20T11:06:12Z</time>
      </trkpt>
      <trkpt lat="44.52599" lon="4.44637">
        <ele>366.4</ele>
        <time>2020-07-20T11:06:27Z</time>
      </trkpt>
      <trkpt lat="44.52589" lon="4.44617">
        <ele>365.92</ele>
        <time>2020-07-20T11:06:42Z</time>
      </trkpt>
      <trkpt lat="44.52579" lon="4.44598">
        <ele>365.44</ele>
        <time>2020-07-20T11:06:57Z</time>
      </trkpt>
      <trkpt lat="44.52564" lon="4.44582">
        <ele>365.92</ele>
        <time>2020-07-20T11:07:12Z</time>
      </trkpt>
      <trkpt lat="44.52555" lon="4.44561">
        <ele>365.92</ele>
        <time>2020-07-20T11:07:27Z</time>
      </trkpt>
      <trkpt lat="44.52553" lon="4.44553">
        <ele>365.92</ele>
        <time>2020-07-20T11:07:42Z</time>
      </trkpt>
      <trkpt lat="44.52555" lon="4.44553">
        <ele>365.92</ele>
        <time>2020-07-20T11:07:57Z</time>
      </trkpt>
      <trkpt lat="44.52555" lon="4.44554">
        <ele>365.92</ele>
        <time>2020-07-20T11:08:12Z</time>
      </trkpt>
      <trkpt lat="44.52557" lon="4.44553">
        <ele>365.92</ele>
        <time>2020-07-20T11:08:27Z</time>
      </trkpt>
      <trkpt lat="44.52556" lon="4.44552">
        <ele>365.44</ele>
        <time>2020-07-20T11:08:42Z</time>
      </trkpt>
      <trkpt lat="44.52555" lon="4.44548">
        <ele>365.44</ele>
        <time>2020-07-20T11:08:57Z</time>
      </trkpt>
      <trkpt lat="44.52554" lon="4.44548">
        <ele>366.4</ele>
        <time>2020-07-20T11:09:12Z</time>
      </trkpt>
      <trkpt lat="44.52555" lon="4.44549">
        <ele>365.92</ele>
        <time>2020-07-20T11:09:27Z</time>
      </trkpt>
      <trkpt lat="44.52556" lon="4.44549">
        <ele>365.92</ele>
        <time>2020-07-20T11:09:42Z</time>
      </trkpt>
      <trkpt lat="44.52556" lon="4.44549">
        <ele>366.4</ele>
        <time>2020-07-20T11:09:57Z</time>
      </trkpt>
      <trkpt lat="44.52553" lon="4.44531">
        <ele>364</ele>
        <time>2020-07-20T11:10:12Z</time>
      </trkpt>
      <trkpt lat="44.52546" lon="4.44512">
        <ele>362.07</ele>
        <time>2020-07-20T11:10:27Z</time>
      </trkpt>
      <trkpt lat="44.52538" lon="4.44491">
        <ele>359.67</ele>
        <time>2020-07-20T11:10:42Z</time>
      </trkpt>
      <trkpt lat="44.52531" lon="4.44472">
        <ele>356.79</ele>
        <time>2020-07-20T11:10:57Z</time>
      </trkpt>
      <trkpt lat="44.52525" lon="4.44452">
        <ele>354.86</ele>
        <time>2020-07-20T11:11:12Z</time>
      </trkpt>
      <trkpt lat="44.52522" lon="4.44433">
        <ele>351.98</ele>
        <time>2020-07-20T11:11:27Z</time>
      </trkpt>
      <trkpt lat="44.52519" lon="4.44412">
        <ele>349.1</ele>
        <time>2020-07-20T11:11:42Z</time>
      </trkpt>
      <trkpt lat="44.52518" lon="4.4439">
        <ele>347.17</ele>
        <time>2020-07-20T11:11:57Z</time>
      </trkpt>
      <trkpt lat="44.52515" lon="4.44366">
        <ele>344.77</ele>
        <time>2020-07-20T11:12:12Z</time>
      </trkpt>
      <trkpt lat="44.52513" lon="4.44353">
        <ele>343.81</ele>
        <time>2020-07-20T11:12:27Z</time>
      </trkpt>
      <trkpt lat="44.52508" lon="4.44337">
        <ele>344.29</ele>
        <time>2020-07-20T11:12:42Z</time>
      </trkpt>
      <trkpt lat="44.525" lon="4.44315">
        <ele>342.85</ele>
        <time>2020-07-20T11:12:57Z</time>
      </trkpt>
      <trkpt lat="44.52493" lon="4.44304">
        <ele>342.37</ele>
        <time>2020-07-20T11:13:12Z</time>
      </trkpt>
      <trkpt lat="44.52494" lon="4.44301">
        <ele>341.89</ele>
        <time>2020-07-20T11:13:27Z</time>
      </trkpt>
      <trkpt lat="44.52496" lon="4.44299">
        <ele>341.89</ele>
        <time>2020-07-20T11:13:42Z</time>
      </trkpt>
      <trkpt lat="44.52497" lon="4.443">
        <ele>341.89</ele>
        <time>2020-07-20T11:13:57Z</time>
      </trkpt>
      <trkpt lat="44.52496" lon="4.44302">
        <ele>342.37</ele>
        <time>2020-07-20T11:14:12Z</time>
      </trkpt>
      <trkpt lat="44.52495" lon="4.443">
        <ele>342.37</ele>
        <time>2020-07-20T11:14:27Z</time>
      </trkpt>
      <trkpt lat="44.5249" lon="4.44297">
        <ele>342.37</ele>
        <time>2020-07-20T11:14:42Z</time>
      </trkpt>
      <trkpt lat="44.52489" lon="4.44296">
        <ele>342.37</ele>
        <time>2020-07-20T11:14:57Z</time>
      </trkpt>
      <trkpt lat="44.52488" lon="4.44296">
        <ele>342.85</ele>
        <time>2020-07-20T11:15:12Z</time>
      </trkpt>
      <trkpt lat="44.52491" lon="4.44295">
        <ele>341.89</ele>
        <time>2020-07-20T11:15:27Z</time>
      </trkpt>
      <trkpt lat="44.52494" lon="4.44301">
        <ele>341.89</ele>
        <time>2020-07-20T11:15:42Z</time>
      </trkpt>
      <trkpt lat="44.52495" lon="4.44303">
        <ele>341.41</ele>
        <time>2020-07-20T11:15:57Z</time>
      </trkpt>
      <trkpt lat="44.52494" lon="4.44304">
        <ele>341.41</ele>
        <time>2020-07-20T11:16:12Z</time>
      </trkpt>
      <trkpt lat="44.52494" lon="4.44303">
        <ele>341.41</ele>
        <time>2020-07-20T11:16:27Z</time>
      </trkpt>
      <trkpt lat="44.52494" lon="4.44303">
        <ele>341.89</ele>
        <time>2020-07-20T11:16:42Z</time>
      </trkpt>
      <trkpt lat="44.52497" lon="4.44303">
        <ele>341.41</ele>
        <time>2020-07-20T11:16:57Z</time>
      </trkpt>
      <trkpt lat="44.52497" lon="4.44303">
        <ele>341.89</ele>
        <time>2020-07-20T11:17:12Z</time>
      </trkpt>
      <trkpt lat="44.52495" lon="4.44302">
        <ele>341.89</ele>
        <time>2020-07-20T11:17:27Z</time>
      </trkpt>
      <trkpt lat="44.52494" lon="4.443">
        <ele>341.89</ele>
        <time>2020-07-20T11:17:42Z</time>
      </trkpt>
      <trkpt lat="44.52494" lon="4.44299">
        <ele>341.89</ele>
        <time>2020-07-20T11:17:57Z</time>
      </trkpt>
      <trkpt lat="44.52491" lon="4.44299">
        <ele>342.37</ele>
        <time>2020-07-20T11:18:12Z</time>
      </trkpt>
      <trkpt lat="44.52491" lon="4.44301">
        <ele>342.37</ele>
        <time>2020-07-20T11:18:27Z</time>
      </trkpt>
      <trkpt lat="44.5249" lon="4.44299">
        <ele>342.37</ele>
        <time>2020-07-20T11:18:42Z</time>
      </trkpt>
      <trkpt lat="44.52489" lon="4.44296">
        <ele>342.37</ele>
        <time>2020-07-20T11:18:57Z</time>
      </trkpt>
      <trkpt lat="44.52491" lon="4.44302">
        <ele>341.89</ele>
        <time>2020-07-20T11:19:12Z</time>
      </trkpt>
      <trkpt lat="44.52492" lon="4.44304">
        <ele>341.89</ele>
        <time>2020-07-20T11:19:27Z</time>
      </trkpt>
      <trkpt lat="44.5249" lon="4.44304">
        <ele>342.37</ele>
        <time>2020-07-20T11:19:42Z</time>
      </trkpt>
      <trkpt lat="44.52478" lon="4.4431">
        <ele>343.33</ele>
        <time>2020-07-20T11:19:57Z</time>
      </trkpt>
      <trkpt lat="44.52466" lon="4.44324">
        <ele>344.29</ele>
        <time>2020-07-20T11:20:12Z</time>
      </trkpt>
      <trkpt lat="44.52461" lon="4.4433">
        <ele>343.81</ele>
        <time>2020-07-20T11:20:27Z</time>
      </trkpt>
      <trkpt lat="44.52459" lon="4.4433">
        <ele>343.33</ele>
        <time>2020-07-20T11:20:42Z</time>
      </trkpt>
      <trkpt lat="44.52457" lon="4.44332">
        <ele>343.33</ele>
        <time>2020-07-20T11:20:57Z</time>
      </trkpt>
      <trkpt lat="44.52455" lon="4.44335">
        <ele>343.33</ele>
        <time>2020-07-20T11:21:12Z</time>
      </trkpt>
      <trkpt lat="44.52444" lon="4.44347">
        <ele>341.89</ele>
        <time>2020-07-20T11:21:27Z</time>
      </trkpt>
      <trkpt lat="44.52429" lon="4.44363">
        <ele>342.85</ele>
        <time>2020-07-20T11:21:42Z</time>
      </trkpt>
      <trkpt lat="44.52412" lon="4.44371">
        <ele>343.81</ele>
        <time>2020-07-20T11:21:57Z</time>
      </trkpt>
      <trkpt lat="44.52396" lon="4.44375">
        <ele>345.25</ele>
        <time>2020-07-20T11:22:12Z</time>
      </trkpt>
      <trkpt lat="44.52383" lon="4.44378">
        <ele>347.17</ele>
        <time>2020-07-20T11:22:27Z</time>
      </trkpt>
      <trkpt lat="44.52369" lon="4.44377">
        <ele>348.62</ele>
        <time>2020-07-20T11:22:42Z</time>
      </trkpt>
      <trkpt lat="44.52354" lon="4.44374">
        <ele>348.62</ele>
        <time>2020-07-20T11:22:57Z</time>
      </trkpt>
      <trkpt lat="44.52339" lon="4.44371">
        <ele>350.06</ele>
        <time>2020-07-20T11:23:12Z</time>
      </trkpt>
      <trkpt lat="44.52323" lon="4.44366">
        <ele>350.54</ele>
        <time>2020-07-20T11:23:27Z</time>
      </trkpt>
      <trkpt lat="44.52309" lon="4.44362">
        <ele>351.98</ele>
        <time>2020-07-20T11:23:42Z</time>
      </trkpt>
      <trkpt lat="44.52295" lon="4.44358">
        <ele>353.9</ele>
        <time>2020-07-20T11:23:57Z</time>
      </trkpt>
      <trkpt lat="44.52283" lon="4.44363">
        <ele>354.38</ele>
        <time>2020-07-20T11:24:12Z</time>
      </trkpt>
      <trkpt lat="44.52269" lon="4.44374">
        <ele>353.9</ele>
        <time>2020-07-20T11:24:27Z</time>
      </trkpt>
      <trkpt lat="44.52254" lon="4.44386">
        <ele>351.98</ele>
        <time>2020-07-20T11:24:42Z</time>
      </trkpt>
      <trkpt lat="44.52241" lon="4.44399">
        <ele>349.58</ele>
        <time>2020-07-20T11:24:57Z</time>
      </trkpt>
      <trkpt lat="44.52238" lon="4.44419">
        <ele>350.54</ele>
        <time>2020-07-20T11:25:12Z</time>
      </trkpt>
      <trkpt lat="44.52227" lon="4.44429">
        <ele>349.58</ele>
        <time>2020-07-20T11:25:27Z</time>
      </trkpt>
      <trkpt lat="44.52211" lon="4.4444">
        <ele>350.06</ele>
        <time>2020-07-20T11:25:42Z</time>
      </trkpt>
      <trkpt lat="44.52197" lon="4.44447">
        <ele>350.54</ele>
        <time>2020-07-20T11:25:57Z</time>
      </trkpt>
      <trkpt lat="44.52181" lon="4.44453">
        <ele>350.54</ele>
        <time>2020-07-20T11:26:12Z</time>
      </trkpt>
      <trkpt lat="44.52163" lon="4.44453">
        <ele>351.02</ele>
        <time>2020-07-20T11:26:27Z</time>
      </trkpt>
      <trkpt lat="44.52162" lon="4.44453">
        <ele>350.54</ele>
        <time>2020-07-20T11:26:42Z</time>
      </trkpt>
      <trkpt lat="44.5216" lon="4.44452">
        <ele>351.02</ele>
        <time>2020-07-20T11:26:57Z</time>
      </trkpt>
      <trkpt lat="44.52159" lon="4.44451">
        <ele>351.02</ele>
        <time>2020-07-20T11:27:12Z</time>
      </trkpt>
      <trkpt lat="44.52144" lon="4.44446">
        <ele>350.54</ele>
        <time>2020-07-20T11:27:27Z</time>
      </trkpt>
      <trkpt lat="44.52129" lon="4.44446">
        <ele>351.5</ele>
        <time>2020-07-20T11:27:42Z</time>
      </trkpt>
      <trkpt lat="44.52113" lon="4.44444">
        <ele>351.98</ele>
        <time>2020-07-20T11:27:57Z</time>
      </trkpt>
      <trkpt lat="44.52097" lon="4.44433">
        <ele>351.02</ele>
        <time>2020-07-20T11:28:12Z</time>
      </trkpt>
      <trkpt lat="44.5208" lon="4.44427">
        <ele>350.54</ele>
        <time>2020-07-20T11:28:27Z</time>
      </trkpt>
      <trkpt lat="44.52063" lon="4.44428">
        <ele>350.06</ele>
        <time>2020-07-20T11:28:42Z</time>
      </trkpt>
      <trkpt lat="44.52046" lon="4.44432">
        <ele>348.62</ele>
        <time>2020-07-20T11:28:57Z</time>
      </trkpt>
      <trkpt lat="44.52027" lon="4.44437">
        <ele>347.65</ele>
        <time>2020-07-20T11:29:12Z</time>
      </trkpt>
      <trkpt lat="44.52015" lon="4.44451">
        <ele>347.17</ele>
        <time>2020-07-20T11:29:27Z</time>
      </trkpt>
      <trkpt lat="44.52003" lon="4.44464">
        <ele>346.69</ele>
        <time>2020-07-20T11:29:42Z</time>
      </trkpt>
      <trkpt lat="44.52006" lon="4.44447">
        <ele>345.73</ele>
        <time>2020-07-20T11:29:57Z</time>
      </trkpt>
      <trkpt lat="44.52011" lon="4.44423">
        <ele>344.29</ele>
        <time>2020-07-20T11:30:12Z</time>
      </trkpt>
      <trkpt lat="44.52019" lon="4.44402">
        <ele>342.37</ele>
        <time>2020-07-20T11:30:27Z</time>
      </trkpt>
      <trkpt lat="44.52018" lon="4.44375">
        <ele>341.41</ele>
        <time>2020-07-20T11:30:42Z</time>
      </trkpt>
      <trkpt lat="44.52021" lon="4.44351">
        <ele>341.41</ele>
        <time>2020-07-20T11:30:57Z</time>
      </trkpt>
      <trkpt lat="44.52019" lon="4.44332">
        <ele>339.96</ele>
        <time>2020-07-20T11:31:12Z</time>
      </trkpt>
      <trkpt lat="44.5202" lon="4.44311">
        <ele>338.52</ele>
        <time>2020-07-20T11:31:27Z</time>
      </trkpt>
      <trkpt lat="44.52012" lon="4.44301">
        <ele>337.56</ele>
        <time>2020-07-20T11:31:42Z</time>
      </trkpt>
      <trkpt lat="44.51997" lon="4.44291">
        <ele>337.56</ele>
        <time>2020-07-20T11:31:57Z</time>
      </trkpt>
      <trkpt lat="44.51985" lon="4.44286">
        <ele>337.56</ele>
        <time>2020-07-20T11:32:12Z</time>
      </trkpt>
      <trkpt lat="44.51969" lon="4.44283">
        <ele>337.08</ele>
        <time>2020-07-20T11:32:27Z</time>
      </trkpt>
      <trkpt lat="44.5196" lon="4.44268">
        <ele>335.64</ele>
        <time>2020-07-20T11:32:42Z</time>
      </trkpt>
      <trkpt lat="44.51947" lon="4.44254">
        <ele>334.68</ele>
        <time>2020-07-20T11:32:57Z</time>
      </trkpt>
      <trkpt lat="44.51946" lon="4.44238">
        <ele>332.27</ele>
        <time>2020-07-20T11:33:12Z</time>
      </trkpt>
      <trkpt lat="44.51944" lon="4.44225">
        <ele>329.87</ele>
        <time>2020-07-20T11:33:27Z</time>
      </trkpt>
      <trkpt lat="44.51945" lon="4.44222">
        <ele>329.87</ele>
        <time>2020-07-20T11:33:42Z</time>
      </trkpt>
      <trkpt lat="44.51945" lon="4.4422">
        <ele>329.87</ele>
        <time>2020-07-20T11:33:57Z</time>
      </trkpt>
      <trkpt lat="44.51945" lon="4.44219">
        <ele>329.87</ele>
        <time>2020-07-20T11:34:12Z</time>
      </trkpt>
      <trkpt lat="44.51943" lon="4.44218">
        <ele>329.87</ele>
        <time>2020-07-20T11:34:27Z</time>
      </trkpt>
      <trkpt lat="44.51945" lon="4.44218">
        <ele>329.39</ele>
        <time>2020-07-20T11:34:42Z</time>
      </trkpt>
      <trkpt lat="44.51944" lon="4.44217">
        <ele>329.39</ele>
        <time>2020-07-20T11:34:57Z</time>
      </trkpt>
      <trkpt lat="44.51947" lon="4.44219">
        <ele>329.87</ele>
        <time>2020-07-20T11:35:12Z</time>
      </trkpt>
      <trkpt lat="44.51942" lon="4.44216">
        <ele>329.87</ele>
        <time>2020-07-20T11:35:27Z</time>
      </trkpt>
      <trkpt lat="44.51941" lon="4.44218">
        <ele>329.39</ele>
        <time>2020-07-20T11:35:42Z</time>
      </trkpt>
      <trkpt lat="44.51941" lon="4.44221">
        <ele>329.87</ele>
        <time>2020-07-20T11:35:57Z</time>
      </trkpt>
      <trkpt lat="44.51941" lon="4.4422">
        <ele>329.87</ele>
        <time>2020-07-20T11:36:12Z</time>
      </trkpt>
      <trkpt lat="44.51939" lon="4.44218">
        <ele>329.87</ele>
        <time>2020-07-20T11:36:27Z</time>
      </trkpt>
      <trkpt lat="44.51939" lon="4.44223">
        <ele>329.87</ele>
        <time>2020-07-20T11:36:42Z</time>
      </trkpt>
      <trkpt lat="44.51943" lon="4.44239">
        <ele>332.27</ele>
        <time>2020-07-20T11:36:57Z</time>
      </trkpt>
      <trkpt lat="44.51947" lon="4.44253">
        <ele>334.2</ele>
        <time>2020-07-20T11:37:12Z</time>
      </trkpt>
      <trkpt lat="44.51956" lon="4.44266">
        <ele>335.64</ele>
        <time>2020-07-20T11:37:27Z</time>
      </trkpt>
      <trkpt lat="44.51963" lon="4.44279">
        <ele>336.6</ele>
        <time>2020-07-20T11:37:42Z</time>
      </trkpt>
      <trkpt lat="44.51975" lon="4.44284">
        <ele>337.08</ele>
        <time>2020-07-20T11:37:57Z</time>
      </trkpt>
      <trkpt lat="44.51988" lon="4.44289">
        <ele>336.12</ele>
        <time>2020-07-20T11:38:12Z</time>
      </trkpt>
      <trkpt lat="44.52004" lon="4.44298">
        <ele>336.12</ele>
        <time>2020-07-20T11:38:27Z</time>
      </trkpt>
      <trkpt lat="44.52014" lon="4.44307">
        <ele>337.56</ele>
        <time>2020-07-20T11:38:42Z</time>
      </trkpt>
      <trkpt lat="44.52014" lon="4.44321">
        <ele>339</ele>
        <time>2020-07-20T11:38:57Z</time>
      </trkpt>
      <trkpt lat="44.52017" lon="4.44337">
        <ele>339.48</ele>
        <time>2020-07-20T11:39:12Z</time>
      </trkpt>
      <trkpt lat="44.52019" lon="4.4436">
        <ele>339.96</ele>
        <time>2020-07-20T11:39:27Z</time>
      </trkpt>
      <trkpt lat="44.5202" lon="4.44377">
        <ele>339.96</ele>
        <time>2020-07-20T11:39:42Z</time>
      </trkpt>
      <trkpt lat="44.52017" lon="4.444">
        <ele>340.92</ele>
        <time>2020-07-20T11:39:57Z</time>
      </trkpt>
      <trkpt lat="44.52014" lon="4.4442">
        <ele>341.89</ele>
        <time>2020-07-20T11:40:12Z</time>
      </trkpt>
      <trkpt lat="44.52009" lon="4.4444">
        <ele>343.33</ele>
        <time>2020-07-20T11:40:27Z</time>
      </trkpt>
      <trkpt lat="44.52005" lon="4.4446">
        <ele>344.77</ele>
        <time>2020-07-20T11:40:42Z</time>
      </trkpt>
      <trkpt lat="44.51992" lon="4.44469">
        <ele>343.81</ele>
        <time>2020-07-20T11:40:57Z</time>
      </trkpt>
      <trkpt lat="44.51976" lon="4.44483">
        <ele>342.85</ele>
        <time>2020-07-20T11:41:12Z</time>
      </trkpt>
      <trkpt lat="44.5196" lon="4.44493">
        <ele>340.92</ele>
        <time>2020-07-20T11:41:27Z</time>
      </trkpt>
      <trkpt lat="44.51945" lon="4.44501">
        <ele>339.48</ele>
        <time>2020-07-20T11:41:42Z</time>
      </trkpt>
      <trkpt lat="44.51926" lon="4.44506">
        <ele>338.04</ele>
        <time>2020-07-20T11:41:57Z</time>
      </trkpt>
      <trkpt lat="44.51907" lon="4.44511">
        <ele>336.6</ele>
        <time>2020-07-20T11:42:12Z</time>
      </trkpt>
      <trkpt lat="44.5189" lon="4.44516">
        <ele>334.68</ele>
        <time>2020-07-20T11:42:27Z</time>
      </trkpt>
      <trkpt lat="44.51874" lon="4.44515">
        <ele>333.71</ele>
        <time>2020-07-20T11:42:42Z</time>
      </trkpt>
      <trkpt lat="44.51861" lon="4.44522">
        <ele>332.75</ele>
        <time>2020-07-20T11:42:57Z</time>
      </trkpt>
      <trkpt lat="44.51847" lon="4.4453">
        <ele>331.79</ele>
        <time>2020-07-20T11:43:12Z</time>
      </trkpt>
      <trkpt lat="44.51837" lon="4.44546">
        <ele>331.79</ele>
        <time>2020-07-20T11:43:27Z</time>
      </trkpt>
      <trkpt lat="44.5182" lon="4.4456">
        <ele>330.35</ele>
        <time>2020-07-20T11:43:42Z</time>
      </trkpt>
      <trkpt lat="44.51803" lon="4.44569">
        <ele>330.35</ele>
        <time>2020-07-20T11:43:57Z</time>
      </trkpt>
      <trkpt lat="44.51786" lon="4.44579">
        <ele>330.35</ele>
        <time>2020-07-20T11:44:12Z</time>
      </trkpt>
      <trkpt lat="44.51771" lon="4.44585">
        <ele>331.31</ele>
        <time>2020-07-20T11:44:27Z</time>
      </trkpt>
      <trkpt lat="44.51755" lon="4.44591">
        <ele>331.31</ele>
        <time>2020-07-20T11:44:42Z</time>
      </trkpt>
      <trkpt lat="44.51739" lon="4.446">
        <ele>332.75</ele>
        <time>2020-07-20T11:44:57Z</time>
      </trkpt>
      <trkpt lat="44.51725" lon="4.4461">
        <ele>332.75</ele>
        <time>2020-07-20T11:45:12Z</time>
      </trkpt>
      <trkpt lat="44.5171" lon="4.44618">
        <ele>331.79</ele>
        <time>2020-07-20T11:45:27Z</time>
      </trkpt>
      <trkpt lat="44.51695" lon="4.44627">
        <ele>329.39</ele>
        <time>2020-07-20T11:45:42Z</time>
      </trkpt>
      <trkpt lat="44.51684" lon="4.44632">
        <ele>328.43</ele>
        <time>2020-07-20T11:45:57Z</time>
      </trkpt>
      <trkpt lat="44.51682" lon="4.44631">
        <ele>328.43</ele>
        <time>2020-07-20T11:46:12Z</time>
      </trkpt>
      <trkpt lat="44.51682" lon="4.4463">
        <ele>328.43</ele>
        <time>2020-07-20T11:46:27Z</time>
      </trkpt>
      <trkpt lat="44.51674" lon="4.44632">
        <ele>326.99</ele>
        <time>2020-07-20T11:46:42Z</time>
      </trkpt>
      <trkpt lat="44.51666" lon="4.44627">
        <ele>325.54</ele>
        <time>2020-07-20T11:46:57Z</time>
      </trkpt>
      <trkpt lat="44.51662" lon="4.44626">
        <ele>324.58</ele>
        <time>2020-07-20T11:47:12Z</time>
      </trkpt>
      <trkpt lat="44.51657" lon="4.44633">
        <ele>322.18</ele>
        <time>2020-07-20T11:47:27Z</time>
      </trkpt>
      <trkpt lat="44.51648" lon="4.44639">
        <ele>318.81</ele>
        <time>2020-07-20T11:47:42Z</time>
      </trkpt>
      <trkpt lat="44.51649" lon="4.44653">
        <ele>315.93</ele>
        <time>2020-07-20T11:47:57Z</time>
      </trkpt>
      <trkpt lat="44.51638" lon="4.44649">
        <ele>313.05</ele>
        <time>2020-07-20T11:48:12Z</time>
      </trkpt>
      <trkpt lat="44.5163" lon="4.44643">
        <ele>309.68</ele>
        <time>2020-07-20T11:48:27Z</time>
      </trkpt>
      <trkpt lat="44.51619" lon="4.44636">
        <ele>306.32</ele>
        <time>2020-07-20T11:48:42Z</time>
      </trkpt>
      <trkpt lat="44.51608" lon="4.4463">
        <ele>302.95</ele>
        <time>2020-07-20T11:48:57Z</time>
      </trkpt>
      <trkpt lat="44.51598" lon="4.44627">
        <ele>300.07</ele>
        <time>2020-07-20T11:49:12Z</time>
      </trkpt>
      <trkpt lat="44.51586" lon="4.44622">
        <ele>296.7</ele>
        <time>2020-07-20T11:49:27Z</time>
      </trkpt>
      <trkpt lat="44.51577" lon="4.44615">
        <ele>294.78</ele>
        <time>2020-07-20T11:49:42Z</time>
      </trkpt>
      <trkpt lat="44.51568" lon="4.4461">
        <ele>291.42</ele>
        <time>2020-07-20T11:49:57Z</time>
      </trkpt>
      <trkpt lat="44.51557" lon="4.44605">
        <ele>288.53</ele>
        <time>2020-07-20T11:50:12Z</time>
      </trkpt>
      <trkpt lat="44.51548" lon="4.446">
        <ele>285.65</ele>
        <time>2020-07-20T11:50:27Z</time>
      </trkpt>
      <trkpt lat="44.51538" lon="4.44595">
        <ele>282.77</ele>
        <time>2020-07-20T11:50:42Z</time>
      </trkpt>
      <trkpt lat="44.51528" lon="4.4459">
        <ele>280.36</ele>
        <time>2020-07-20T11:50:57Z</time>
      </trkpt>
      <trkpt lat="44.51515" lon="4.44581">
        <ele>278.44</ele>
        <time>2020-07-20T11:51:12Z</time>
      </trkpt>
      <trkpt lat="44.51503" lon="4.44577">
        <ele>275.56</ele>
        <time>2020-07-20T11:51:27Z</time>
      </trkpt>
      <trkpt lat="44.515" lon="4.44577">
        <ele>275.07</ele>
        <time>2020-07-20T11:51:42Z</time>
      </trkpt>
      <trkpt lat="44.51502" lon="4.44574">
        <ele>275.07</ele>
        <time>2020-07-20T11:51:57Z</time>
      </trkpt>
      <trkpt lat="44.51503" lon="4.44571">
        <ele>275.56</ele>
        <time>2020-07-20T11:52:12Z</time>
      </trkpt>
      <trkpt lat="44.51487" lon="4.44574">
        <ele>276.04</ele>
        <time>2020-07-20T11:52:27Z</time>
      </trkpt>
      <trkpt lat="44.51472" lon="4.44579">
        <ele>275.56</ele>
        <time>2020-07-20T11:52:42Z</time>
      </trkpt>
      <trkpt lat="44.51458" lon="4.44583">
        <ele>275.07</ele>
        <time>2020-07-20T11:52:57Z</time>
      </trkpt>
      <trkpt lat="44.51444" lon="4.44583">
        <ele>275.07</ele>
        <time>2020-07-20T11:53:12Z</time>
      </trkpt>
      <trkpt lat="44.51438" lon="4.44564">
        <ele>276.04</ele>
        <time>2020-07-20T11:53:27Z</time>
      </trkpt>
      <trkpt lat="44.51431" lon="4.44548">
        <ele>277.96</ele>
        <time>2020-07-20T11:53:42Z</time>
      </trkpt>
      <trkpt lat="44.51428" lon="4.44531">
        <ele>280.36</ele>
        <time>2020-07-20T11:53:57Z</time>
      </trkpt>
      <trkpt lat="44.51425" lon="4.44514">
        <ele>282.28</ele>
        <time>2020-07-20T11:54:12Z</time>
      </trkpt>
      <trkpt lat="44.51422" lon="4.44501">
        <ele>283.73</ele>
        <time>2020-07-20T11:54:27Z</time>
      </trkpt>
      <trkpt lat="44.51423" lon="4.445">
        <ele>284.21</ele>
        <time>2020-07-20T11:54:42Z</time>
      </trkpt>
      <trkpt lat="44.5142" lon="4.44502">
        <ele>283.25</ele>
        <time>2020-07-20T11:54:57Z</time>
      </trkpt>
      <trkpt lat="44.51422" lon="4.44499">
        <ele>283.25</ele>
        <time>2020-07-20T11:55:12Z</time>
      </trkpt>
      <trkpt lat="44.51425" lon="4.44498">
        <ele>282.77</ele>
        <time>2020-07-20T11:55:27Z</time>
      </trkpt>
      <trkpt lat="44.51424" lon="4.44498">
        <ele>283.25</ele>
        <time>2020-07-20T11:55:42Z</time>
      </trkpt>
      <trkpt lat="44.51424" lon="4.445">
        <ele>283.25</ele>
        <time>2020-07-20T11:55:57Z</time>
      </trkpt>
      <trkpt lat="44.51424" lon="4.445">
        <ele>283.73</ele>
        <time>2020-07-20T11:56:12Z</time>
      </trkpt>
      <trkpt lat="44.51422" lon="4.445">
        <ele>283.73</ele>
        <time>2020-07-20T11:56:27Z</time>
      </trkpt>
      <trkpt lat="44.5142" lon="4.44501">
        <ele>283.25</ele>
        <time>2020-07-20T11:56:42Z</time>
      </trkpt>
      <trkpt lat="44.51421" lon="4.44502">
        <ele>283.25</ele>
        <time>2020-07-20T11:56:57Z</time>
      </trkpt>
      <trkpt lat="44.51421" lon="4.44503">
        <ele>283.25</ele>
        <time>2020-07-20T11:57:12Z</time>
      </trkpt>
      <trkpt lat="44.51423" lon="4.44503">
        <ele>284.21</ele>
        <time>2020-07-20T11:57:27Z</time>
      </trkpt>
      <trkpt lat="44.51423" lon="4.44504">
        <ele>284.69</ele>
        <time>2020-07-20T11:57:42Z</time>
      </trkpt>
      <trkpt lat="44.51425" lon="4.44504">
        <ele>284.21</ele>
        <time>2020-07-20T11:57:57Z</time>
      </trkpt>
      <trkpt lat="44.51425" lon="4.44493">
        <ele>284.69</ele>
        <time>2020-07-20T11:58:12Z</time>
      </trkpt>
      <trkpt lat="44.51422" lon="4.44473">
        <ele>286.13</ele>
        <time>2020-07-20T11:58:27Z</time>
      </trkpt>
      <trkpt lat="44.51419" lon="4.44458">
        <ele>287.09</ele>
        <time>2020-07-20T11:58:42Z</time>
      </trkpt>
      <trkpt lat="44.51419" lon="4.44431">
        <ele>287.09</ele>
        <time>2020-07-20T11:58:57Z</time>
      </trkpt>
      <trkpt lat="44.5142" lon="4.4441">
        <ele>287.09</ele>
        <time>2020-07-20T11:59:12Z</time>
      </trkpt>
      <trkpt lat="44.51424" lon="4.44387">
        <ele>285.65</ele>
        <time>2020-07-20T11:59:27Z</time>
      </trkpt>
      <trkpt lat="44.51429" lon="4.44363">
        <ele>285.17</ele>
        <time>2020-07-20T11:59:42Z</time>
      </trkpt>
      <trkpt lat="44.51427" lon="4.44344">
        <ele>285.65</ele>
        <time>2020-07-20T11:59:57Z</time>
      </trkpt>
      <trkpt lat="44.51432" lon="4.44331">
        <ele>287.09</ele>
        <time>2020-07-20T12:00:12Z</time>
      </trkpt>
      <trkpt lat="44.51442" lon="4.44317">
        <ele>287.09</ele>
        <time>2020-07-20T12:00:27Z</time>
      </trkpt>
      <trkpt lat="44.51455" lon="4.44309">
        <ele>288.05</ele>
        <time>2020-07-20T12:00:42Z</time>
      </trkpt>
      <trkpt lat="44.51466" lon="4.44292">
        <ele>289.01</ele>
        <time>2020-07-20T12:00:57Z</time>
      </trkpt>
      <trkpt lat="44.51475" lon="4.44273">
        <ele>289.49</ele>
        <time>2020-07-20T12:01:12Z</time>
      </trkpt>
      <trkpt lat="44.51482" lon="4.44251">
        <ele>290.94</ele>
        <time>2020-07-20T12:01:27Z</time>
      </trkpt>
      <trkpt lat="44.51488" lon="4.44234">
        <ele>291.42</ele>
        <time>2020-07-20T12:01:42Z</time>
      </trkpt>
      <trkpt lat="44.51489" lon="4.44221">
        <ele>293.82</ele>
        <time>2020-07-20T12:01:57Z</time>
      </trkpt>
      <trkpt lat="44.51495" lon="4.44208">
        <ele>294.3</ele>
        <time>2020-07-20T12:02:12Z</time>
      </trkpt>
      <trkpt lat="44.51501" lon="4.44189">
        <ele>294.3</ele>
        <time>2020-07-20T12:02:27Z</time>
      </trkpt>
      <trkpt lat="44.515" lon="4.44186">
        <ele>294.3</ele>
        <time>2020-07-20T12:02:42Z</time>
      </trkpt>
      <trkpt lat="44.51501" lon="4.44185">
        <ele>294.78</ele>
        <time>2020-07-20T12:02:57Z</time>
      </trkpt>
      <trkpt lat="44.51502" lon="4.44185">
        <ele>295.26</ele>
        <time>2020-07-20T12:03:12Z</time>
      </trkpt>
      <trkpt lat="44.51504" lon="4.44183">
        <ele>294.78</ele>
        <time>2020-07-20T12:03:27Z</time>
      </trkpt>
      <trkpt lat="44.51507" lon="4.44181">
        <ele>295.26</ele>
        <time>2020-07-20T12:03:42Z</time>
      </trkpt>
      <trkpt lat="44.51508" lon="4.44181">
        <ele>295.26</ele>
        <time>2020-07-20T12:03:57Z</time>
      </trkpt>
      <trkpt lat="44.51509" lon="4.44178">
        <ele>295.26</ele>
        <time>2020-07-20T12:04:12Z</time>
      </trkpt>
      <trkpt lat="44.51508" lon="4.44172">
        <ele>295.74</ele>
        <time>2020-07-20T12:04:27Z</time>
      </trkpt>
      <trkpt lat="44.51502" lon="4.44157">
        <ele>295.74</ele>
        <time>2020-07-20T12:04:42Z</time>
      </trkpt>
      <trkpt lat="44.51508" lon="4.4414">
        <ele>295.26</ele>
        <time>2020-07-20T12:04:57Z</time>
      </trkpt>
      <trkpt lat="44.51515" lon="4.44122">
        <ele>295.26</ele>
        <time>2020-07-20T12:05:12Z</time>
      </trkpt>
      <trkpt lat="44.51527" lon="4.44102">
        <ele>294.78</ele>
        <time>2020-07-20T12:05:27Z</time>
      </trkpt>
      <trkpt lat="44.51535" lon="4.44086">
        <ele>296.22</ele>
        <time>2020-07-20T12:05:42Z</time>
      </trkpt>
      <trkpt lat="44.51545" lon="4.44073">
        <ele>298.15</ele>
        <time>2020-07-20T12:05:57Z</time>
      </trkpt>
      <trkpt lat="44.51555" lon="4.44059">
        <ele>299.11</ele>
        <time>2020-07-20T12:06:12Z</time>
      </trkpt>
      <trkpt lat="44.51561" lon="4.44043">
        <ele>301.03</ele>
        <time>2020-07-20T12:06:27Z</time>
      </trkpt>
      <trkpt lat="44.51564" lon="4.44029">
        <ele>302.47</ele>
        <time>2020-07-20T12:06:42Z</time>
      </trkpt>
      <trkpt lat="44.51569" lon="4.44015">
        <ele>303.43</ele>
        <time>2020-07-20T12:06:57Z</time>
      </trkpt>
      <trkpt lat="44.51572" lon="4.43998">
        <ele>304.88</ele>
        <time>2020-07-20T12:07:12Z</time>
      </trkpt>
      <trkpt lat="44.51573" lon="4.43981">
        <ele>305.84</ele>
        <time>2020-07-20T12:07:27Z</time>
      </trkpt>
      <trkpt lat="44.51573" lon="4.43962">
        <ele>306.32</ele>
        <time>2020-07-20T12:07:42Z</time>
      </trkpt>
      <trkpt lat="44.51575" lon="4.43958">
        <ele>306.8</ele>
        <time>2020-07-20T12:07:57Z</time>
      </trkpt>
      <trkpt lat="44.51576" lon="4.43958">
        <ele>305.84</ele>
        <time>2020-07-20T12:08:12Z</time>
      </trkpt>
      <trkpt lat="44.51574" lon="4.43948">
        <ele>306.8</ele>
        <time>2020-07-20T12:08:27Z</time>
      </trkpt>
      <trkpt lat="44.51573" lon="4.43927">
        <ele>305.84</ele>
        <time>2020-07-20T12:08:42Z</time>
      </trkpt>
      <trkpt lat="44.51573" lon="4.43907">
        <ele>304.88</ele>
        <time>2020-07-20T12:08:57Z</time>
      </trkpt>
      <trkpt lat="44.51574" lon="4.43886">
        <ele>303.43</ele>
        <time>2020-07-20T12:09:12Z</time>
      </trkpt>
      <trkpt lat="44.51581" lon="4.43864">
        <ele>301.99</ele>
        <time>2020-07-20T12:09:27Z</time>
      </trkpt>
      <trkpt lat="44.51578" lon="4.43847">
        <ele>301.51</ele>
        <time>2020-07-20T12:09:42Z</time>
      </trkpt>
      <trkpt lat="44.51581" lon="4.43833">
        <ele>299.11</ele>
        <time>2020-07-20T12:09:57Z</time>
      </trkpt>
      <trkpt lat="44.5159" lon="4.43823">
        <ele>295.74</ele>
        <time>2020-07-20T12:10:12Z</time>
      </trkpt>
      <trkpt lat="44.51596" lon="4.43807">
        <ele>293.82</ele>
        <time>2020-07-20T12:10:27Z</time>
      </trkpt>
      <trkpt lat="44.516" lon="4.4379">
        <ele>291.42</ele>
        <time>2020-07-20T12:10:42Z</time>
      </trkpt>
      <trkpt lat="44.51601" lon="4.43787">
        <ele>289.49</ele>
        <time>2020-07-20T12:10:57Z</time>
      </trkpt>
      <trkpt lat="44.51601" lon="4.43787">
        <ele>289.49</ele>
        <time>2020-07-20T12:11:12Z</time>
      </trkpt>
      <trkpt lat="44.51602" lon="4.43786">
        <ele>289.97</ele>
        <time>2020-07-20T12:11:27Z</time>
      </trkpt>
      <trkpt lat="44.51603" lon="4.43782">
        <ele>289.97</ele>
        <time>2020-07-20T12:11:42Z</time>
      </trkpt>
      <trkpt lat="44.5161" lon="4.4378">
        <ele>288.05</ele>
        <time>2020-07-20T12:11:57Z</time>
      </trkpt>
      <trkpt lat="44.51617" lon="4.43781">
        <ele>285.65</ele>
        <time>2020-07-20T12:12:12Z</time>
      </trkpt>
      <trkpt lat="44.51629" lon="4.43771">
        <ele>283.25</ele>
        <time>2020-07-20T12:12:27Z</time>
      </trkpt>
      <trkpt lat="44.51635" lon="4.43765">
        <ele>281.8</ele>
        <time>2020-07-20T12:12:42Z</time>
      </trkpt>
      <trkpt lat="44.51638" lon="4.43764">
        <ele>281.8</ele>
        <time>2020-07-20T12:12:57Z</time>
      </trkpt>
      <trkpt lat="44.51652" lon="4.43749">
        <ele>279.4</ele>
        <time>2020-07-20T12:13:12Z</time>
      </trkpt>
      <trkpt lat="44.51662" lon="4.43731">
        <ele>278.44</ele>
        <time>2020-07-20T12:13:27Z</time>
      </trkpt>
      <trkpt lat="44.51668" lon="4.43727">
        <ele>277</ele>
        <time>2020-07-20T12:13:42Z</time>
      </trkpt>
      <trkpt lat="44.51676" lon="4.4373">
        <ele>276.04</ele>
        <time>2020-07-20T12:13:57Z</time>
      </trkpt>
      <trkpt lat="44.51691" lon="4.43739">
        <ele>274.59</ele>
        <time>2020-07-20T12:14:12Z</time>
      </trkpt>
      <trkpt lat="44.51708" lon="4.43744">
        <ele>273.63</ele>
        <time>2020-07-20T12:14:27Z</time>
      </trkpt>
      <trkpt lat="44.51718" lon="4.43749">
        <ele>272.67</ele>
        <time>2020-07-20T12:14:42Z</time>
      </trkpt>
      <trkpt lat="44.51732" lon="4.4376">
        <ele>271.71</ele>
        <time>2020-07-20T12:14:57Z</time>
      </trkpt>
      <trkpt lat="44.51741" lon="4.43763">
        <ele>271.23</ele>
        <time>2020-07-20T12:15:12Z</time>
      </trkpt>
      <trkpt lat="44.51754" lon="4.43778">
        <ele>269.31</ele>
        <time>2020-07-20T12:15:27Z</time>
      </trkpt>
      <trkpt lat="44.51763" lon="4.43788">
        <ele>268.35</ele>
        <time>2020-07-20T12:15:42Z</time>
      </trkpt>
      <trkpt lat="44.5177" lon="4.4379">
        <ele>267.86</ele>
        <time>2020-07-20T12:15:57Z</time>
      </trkpt>
      <trkpt lat="44.51784" lon="4.43791">
        <ele>266.42</ele>
        <time>2020-07-20T12:16:12Z</time>
      </trkpt>
      <trkpt lat="44.51796" lon="4.43794">
        <ele>264.98</ele>
        <time>2020-07-20T12:16:27Z</time>
      </trkpt>
      <trkpt lat="44.51796" lon="4.4379">
        <ele>264.5</ele>
        <time>2020-07-20T12:16:42Z</time>
      </trkpt>
      <trkpt lat="44.51793" lon="4.43774">
        <ele>262.1</ele>
        <time>2020-07-20T12:16:57Z</time>
      </trkpt>
      <trkpt lat="44.51786" lon="4.43756">
        <ele>258.73</ele>
        <time>2020-07-20T12:17:12Z</time>
      </trkpt>
      <trkpt lat="44.51779" lon="4.43738">
        <ele>256.81</ele>
        <time>2020-07-20T12:17:27Z</time>
      </trkpt>
      <trkpt lat="44.51775" lon="4.4372">
        <ele>254.41</ele>
        <time>2020-07-20T12:17:42Z</time>
      </trkpt>
      <trkpt lat="44.51771" lon="4.43704">
        <ele>252.48</ele>
        <time>2020-07-20T12:17:57Z</time>
      </trkpt>
      <trkpt lat="44.51765" lon="4.43689">
        <ele>249.12</ele>
        <time>2020-07-20T12:18:12Z</time>
      </trkpt>
      <trkpt lat="44.51764" lon="4.43678">
        <ele>248.16</ele>
        <time>2020-07-20T12:18:27Z</time>
      </trkpt>
      <trkpt lat="44.5176" lon="4.43665">
        <ele>245.27</ele>
        <time>2020-07-20T12:18:42Z</time>
      </trkpt>
      <trkpt lat="44.51756" lon="4.43647">
        <ele>242.87</ele>
        <time>2020-07-20T12:18:57Z</time>
      </trkpt>
      <trkpt lat="44.51751" lon="4.43631">
        <ele>240.95</ele>
        <time>2020-07-20T12:19:12Z</time>
      </trkpt>
      <trkpt lat="44.51749" lon="4.43611">
        <ele>237.58</ele>
        <time>2020-07-20T12:19:27Z</time>
      </trkpt>
      <trkpt lat="44.51747" lon="4.43591">
        <ele>234.7</ele>
        <time>2020-07-20T12:19:42Z</time>
      </trkpt>
      <trkpt lat="44.51744" lon="4.43572">
        <ele>231.33</ele>
        <time>2020-07-20T12:19:57Z</time>
      </trkpt>
      <trkpt lat="44.5174" lon="4.43563">
        <ele>230.37</ele>
        <time>2020-07-20T12:20:12Z</time>
      </trkpt>
      <trkpt lat="44.51741" lon="4.4356">
        <ele>229.89</ele>
        <time>2020-07-20T12:20:27Z</time>
      </trkpt>
      <trkpt lat="44.51743" lon="4.4356">
        <ele>229.89</ele>
        <time>2020-07-20T12:20:42Z</time>
      </trkpt>
      <trkpt lat="44.51742" lon="4.43551">
        <ele>228.93</ele>
        <time>2020-07-20T12:20:57Z</time>
      </trkpt>
      <trkpt lat="44.5174" lon="4.43529">
        <ele>226.05</ele>
        <time>2020-07-20T12:21:12Z</time>
      </trkpt>
      <trkpt lat="44.5174" lon="4.43522">
        <ele>226.05</ele>
        <time>2020-07-20T12:21:27Z</time>
      </trkpt>
      <trkpt lat="44.5174" lon="4.43507">
        <ele>222.68</ele>
        <time>2020-07-20T12:21:42Z</time>
      </trkpt>
      <trkpt lat="44.51738" lon="4.43493">
        <ele>221.72</ele>
        <time>2020-07-20T12:21:57Z</time>
      </trkpt>
      <trkpt lat="44.51736" lon="4.43473">
        <ele>218.36</ele>
        <time>2020-07-20T12:22:12Z</time>
      </trkpt>
      <trkpt lat="44.51735" lon="4.43451">
        <ele>215.47</ele>
        <time>2020-07-20T12:22:27Z</time>
      </trkpt>
      <trkpt lat="44.51728" lon="4.43424">
        <ele>213.55</ele>
        <time>2020-07-20T12:22:42Z</time>
      </trkpt>
      <trkpt lat="44.51728" lon="4.43403">
        <ele>211.63</ele>
        <time>2020-07-20T12:22:57Z</time>
      </trkpt>
      <trkpt lat="44.51732" lon="4.43384">
        <ele>209.22</ele>
        <time>2020-07-20T12:23:12Z</time>
      </trkpt>
      <trkpt lat="44.51736" lon="4.43363">
        <ele>206.82</ele>
        <time>2020-07-20T12:23:27Z</time>
      </trkpt>
      <trkpt lat="44.51736" lon="4.43343">
        <ele>205.38</ele>
        <time>2020-07-20T12:23:41Z</time>
      </trkpt>
      <trkpt lat="44.51737" lon="4.43329">
        <ele>205.86</ele>
        <time>2020-07-20T12:23:57Z</time>
      </trkpt>
      <trkpt lat="44.5173" lon="4.43333">
        <ele>204.9</ele>
        <time>2020-07-20T12:24:12Z</time>
      </trkpt>
      <trkpt lat="44.5173" lon="4.43328">
        <ele>202.98</ele>
        <time>2020-07-20T12:24:27Z</time>
      </trkpt>
      <trkpt lat="44.5173" lon="4.4331">
        <ele>200.09</ele>
        <time>2020-07-20T12:24:42Z</time>
      </trkpt>
      <trkpt lat="44.5173" lon="4.43292">
        <ele>196.73</ele>
        <time>2020-07-20T12:24:57Z</time>
      </trkpt>
      <trkpt lat="44.51727" lon="4.43281">
        <ele>195.77</ele>
        <time>2020-07-20T12:25:12Z</time>
      </trkpt>
      <trkpt lat="44.51727" lon="4.43285">
        <ele>195.77</ele>
        <time>2020-07-20T12:25:27Z</time>
      </trkpt>
      <trkpt lat="44.5173" lon="4.4327">
        <ele>194.8</ele>
        <time>2020-07-20T12:25:42Z</time>
      </trkpt>
      <trkpt lat="44.51738" lon="4.43251">
        <ele>194.32</ele>
        <time>2020-07-20T12:25:57Z</time>
      </trkpt>
      <trkpt lat="44.51751" lon="4.43229">
        <ele>193.84</ele>
        <time>2020-07-20T12:26:12Z</time>
      </trkpt>
      <trkpt lat="44.51756" lon="4.43226">
        <ele>193.84</ele>
        <time>2020-07-20T12:26:27Z</time>
      </trkpt>
      <trkpt lat="44.51756" lon="4.43219">
        <ele>193.84</ele>
        <time>2020-07-20T12:26:42Z</time>
      </trkpt>
      <trkpt lat="44.51762" lon="4.43201">
        <ele>193.36</ele>
        <time>2020-07-20T12:26:57Z</time>
      </trkpt>
      <trkpt lat="44.5177" lon="4.43175">
        <ele>193.84</ele>
        <time>2020-07-20T12:27:12Z</time>
      </trkpt>
      <trkpt lat="44.5177" lon="4.43151">
        <ele>193.84</ele>
        <time>2020-07-20T12:27:27Z</time>
      </trkpt>
      <trkpt lat="44.51766" lon="4.43143">
        <ele>193.36</ele>
        <time>2020-07-20T12:27:42Z</time>
      </trkpt>
      <trkpt lat="44.51765" lon="4.43143">
        <ele>193.36</ele>
        <time>2020-07-20T12:27:57Z</time>
      </trkpt>
    </trkseg>
  </trk>
</gpx>